<?xml version="1.0" encoding="UTF-8" standalone="no" ?>
<gpx xmlns="http://www.topografix.com/GPX/1/1" xmlns:xsi="http://www.w3.org/2001/XMLSchema-instance" xsi:schemaLocation="http://www.topografix.com/GPX/1/1 http://www.topografix.com/GPX/1/1/gpx.xsd" version="1.1" creator="VisuGPX - https://www.visugpx.com">
  <metadata>
    <name>Enduro de Courteix </name>
  </metadata>
  <trk>
    <name><![CDATA[Enduro de Courteix ]]></name>
    <trkseg>
      <trkpt lat="45.96039" lon="2.85529">
        <ele>725.8</ele>
        <time>2023-07-04T15:50:58Z</time>
      </trkpt>
      <trkpt lat="45.96039" lon="2.85526">
        <ele>725.8</ele>
        <time>2023-07-04T15:50:59Z</time>
      </trkpt>
      <trkpt lat="45.9604" lon="2.85524">
        <ele>725.8</ele>
        <time>2023-07-04T15:51:00Z</time>
      </trkpt>
      <trkpt lat="45.96041" lon="2.85522">
        <ele>725.8</ele>
        <time>2023-07-04T15:51:01Z</time>
      </trkpt>
      <trkpt lat="45.9604" lon="2.85518">
        <ele>725.8</ele>
        <time>2023-07-04T15:51:02Z</time>
      </trkpt>
      <trkpt lat="45.9604" lon="2.85517">
        <ele>725.8</ele>
        <time>2023-07-04T15:51:03Z</time>
      </trkpt>
      <trkpt lat="45.96041" lon="2.85515">
        <ele>725.8</ele>
        <time>2023-07-04T15:51:04Z</time>
      </trkpt>
      <trkpt lat="45.96041" lon="2.85512">
        <ele>725.7</ele>
        <time>2023-07-04T15:51:05Z</time>
      </trkpt>
      <trkpt lat="45.96041" lon="2.85506">
        <ele>725.7</ele>
        <time>2023-07-04T15:51:06Z</time>
      </trkpt>
      <trkpt lat="45.96041" lon="2.85504">
        <ele>725.6</ele>
        <time>2023-07-04T15:51:07Z</time>
      </trkpt>
      <trkpt lat="45.96041" lon="2.85499">
        <ele>725.5</ele>
        <time>2023-07-04T15:51:08Z</time>
      </trkpt>
      <trkpt lat="45.96042" lon="2.85494">
        <ele>725.5</ele>
        <time>2023-07-04T15:51:09Z</time>
      </trkpt>
      <trkpt lat="45.96042" lon="2.85489">
        <ele>725.4</ele>
        <time>2023-07-04T15:51:10Z</time>
      </trkpt>
      <trkpt lat="45.96043" lon="2.85485">
        <ele>725.2</ele>
        <time>2023-07-04T15:51:11Z</time>
      </trkpt>
      <trkpt lat="45.96044" lon="2.85482">
        <ele>725.2</ele>
        <time>2023-07-04T15:51:12Z</time>
      </trkpt>
      <trkpt lat="45.96044" lon="2.85478">
        <ele>725</ele>
        <time>2023-07-04T15:51:13Z</time>
      </trkpt>
      <trkpt lat="45.96045" lon="2.85473">
        <ele>724.9</ele>
        <time>2023-07-04T15:51:14Z</time>
      </trkpt>
      <trkpt lat="45.96045" lon="2.85469">
        <ele>724.7</ele>
        <time>2023-07-04T15:51:15Z</time>
      </trkpt>
      <trkpt lat="45.96046" lon="2.85465">
        <ele>724.6</ele>
        <time>2023-07-04T15:51:16Z</time>
      </trkpt>
      <trkpt lat="45.96047" lon="2.85461">
        <ele>724.4</ele>
        <time>2023-07-04T15:51:17Z</time>
      </trkpt>
      <trkpt lat="45.96048" lon="2.85457">
        <ele>724.3</ele>
        <time>2023-07-04T15:51:18Z</time>
      </trkpt>
      <trkpt lat="45.96049" lon="2.85452">
        <ele>724</ele>
        <time>2023-07-04T15:51:19Z</time>
      </trkpt>
      <trkpt lat="45.96049" lon="2.85446">
        <ele>723.8</ele>
        <time>2023-07-04T15:51:20Z</time>
      </trkpt>
      <trkpt lat="45.96048" lon="2.85444">
        <ele>723.7</ele>
        <time>2023-07-04T15:51:21Z</time>
      </trkpt>
      <trkpt lat="45.96048" lon="2.8544">
        <ele>723.6</ele>
        <time>2023-07-04T15:51:22Z</time>
      </trkpt>
      <trkpt lat="45.96049" lon="2.85436">
        <ele>723.4</ele>
        <time>2023-07-04T15:51:23Z</time>
      </trkpt>
      <trkpt lat="45.96049" lon="2.85431">
        <ele>723.2</ele>
        <time>2023-07-04T15:51:24Z</time>
      </trkpt>
      <trkpt lat="45.96049" lon="2.85426">
        <ele>722.9</ele>
        <time>2023-07-04T15:51:25Z</time>
      </trkpt>
      <trkpt lat="45.96049" lon="2.85421">
        <ele>722.6</ele>
        <time>2023-07-04T15:51:26Z</time>
      </trkpt>
      <trkpt lat="45.96049" lon="2.85418">
        <ele>722.6</ele>
        <time>2023-07-04T15:51:27Z</time>
      </trkpt>
      <trkpt lat="45.9605" lon="2.85413">
        <ele>722.4</ele>
        <time>2023-07-04T15:51:28Z</time>
      </trkpt>
      <trkpt lat="45.96052" lon="2.8541">
        <ele>722.1</ele>
        <time>2023-07-04T15:51:29Z</time>
      </trkpt>
      <trkpt lat="45.96055" lon="2.85407">
        <ele>721.8</ele>
        <time>2023-07-04T15:51:30Z</time>
      </trkpt>
      <trkpt lat="45.96058" lon="2.85405">
        <ele>721.8</ele>
        <time>2023-07-04T15:51:31Z</time>
      </trkpt>
      <trkpt lat="45.96061" lon="2.85403">
        <ele>721.4</ele>
        <time>2023-07-04T15:51:32Z</time>
      </trkpt>
      <trkpt lat="45.96064" lon="2.85402">
        <ele>721.3</ele>
        <time>2023-07-04T15:51:33Z</time>
      </trkpt>
      <trkpt lat="45.96067" lon="2.85403">
        <ele>721.2</ele>
        <time>2023-07-04T15:51:34Z</time>
      </trkpt>
      <trkpt lat="45.96068" lon="2.85403">
        <ele>721.1</ele>
        <time>2023-07-04T15:51:35Z</time>
      </trkpt>
      <trkpt lat="45.96071" lon="2.85405">
        <ele>721.2</ele>
        <time>2023-07-04T15:51:37Z</time>
      </trkpt>
      <trkpt lat="45.96073" lon="2.85405">
        <ele>721.1</ele>
        <time>2023-07-04T15:51:38Z</time>
      </trkpt>
      <trkpt lat="45.96076" lon="2.85407">
        <ele>720.8</ele>
        <time>2023-07-04T15:51:39Z</time>
      </trkpt>
      <trkpt lat="45.96077" lon="2.85407">
        <ele>720.7</ele>
        <time>2023-07-04T15:51:40Z</time>
      </trkpt>
      <trkpt lat="45.96082" lon="2.85409">
        <ele>720.6</ele>
        <time>2023-07-04T15:51:41Z</time>
      </trkpt>
      <trkpt lat="45.96086" lon="2.8541">
        <ele>720.4</ele>
        <time>2023-07-04T15:51:43Z</time>
      </trkpt>
      <trkpt lat="45.96089" lon="2.85413">
        <ele>720.5</ele>
        <time>2023-07-04T15:51:44Z</time>
      </trkpt>
      <trkpt lat="45.9609" lon="2.85414">
        <ele>720.5</ele>
        <time>2023-07-04T15:51:45Z</time>
      </trkpt>
      <trkpt lat="45.96094" lon="2.85416">
        <ele>720.2</ele>
        <time>2023-07-04T15:51:46Z</time>
      </trkpt>
      <trkpt lat="45.96095" lon="2.85416">
        <ele>720.1</ele>
        <time>2023-07-04T15:51:47Z</time>
      </trkpt>
      <trkpt lat="45.96099" lon="2.85417">
        <ele>720</ele>
        <time>2023-07-04T15:51:48Z</time>
      </trkpt>
      <trkpt lat="45.96102" lon="2.85418">
        <ele>720.1</ele>
        <time>2023-07-04T15:51:49Z</time>
      </trkpt>
      <trkpt lat="45.96106" lon="2.85419">
        <ele>719.7</ele>
        <time>2023-07-04T15:51:50Z</time>
      </trkpt>
      <trkpt lat="45.96107" lon="2.8542">
        <ele>719.7</ele>
        <time>2023-07-04T15:51:51Z</time>
      </trkpt>
      <trkpt lat="45.96111" lon="2.85421">
        <ele>719.5</ele>
        <time>2023-07-04T15:51:52Z</time>
      </trkpt>
      <trkpt lat="45.96112" lon="2.85422">
        <ele>719.5</ele>
        <time>2023-07-04T15:51:53Z</time>
      </trkpt>
      <trkpt lat="45.96113" lon="2.85423">
        <ele>719.4</ele>
        <time>2023-07-04T15:51:54Z</time>
      </trkpt>
      <trkpt lat="45.96115" lon="2.85424">
        <ele>719.1</ele>
        <time>2023-07-04T15:51:55Z</time>
      </trkpt>
      <trkpt lat="45.96119" lon="2.85425">
        <ele>718.8</ele>
        <time>2023-07-04T15:51:56Z</time>
      </trkpt>
      <trkpt lat="45.96121" lon="2.85425">
        <ele>718.5</ele>
        <time>2023-07-04T15:51:57Z</time>
      </trkpt>
      <trkpt lat="45.96123" lon="2.85427">
        <ele>718.7</ele>
        <time>2023-07-04T15:51:58Z</time>
      </trkpt>
      <trkpt lat="45.96126" lon="2.85429">
        <ele>718.4</ele>
        <time>2023-07-04T15:51:59Z</time>
      </trkpt>
      <trkpt lat="45.96128" lon="2.85432">
        <ele>718.2</ele>
        <time>2023-07-04T15:52:00Z</time>
      </trkpt>
      <trkpt lat="45.96131" lon="2.85436">
        <ele>718</ele>
        <time>2023-07-04T15:52:01Z</time>
      </trkpt>
      <trkpt lat="45.96133" lon="2.85437">
        <ele>717.6</ele>
        <time>2023-07-04T15:52:02Z</time>
      </trkpt>
      <trkpt lat="45.96137" lon="2.8544">
        <ele>717.4</ele>
        <time>2023-07-04T15:52:04Z</time>
      </trkpt>
      <trkpt lat="45.9614" lon="2.85444">
        <ele>717.1</ele>
        <time>2023-07-04T15:52:05Z</time>
      </trkpt>
      <trkpt lat="45.96143" lon="2.85448">
        <ele>716.8</ele>
        <time>2023-07-04T15:52:06Z</time>
      </trkpt>
      <trkpt lat="45.96144" lon="2.8545">
        <ele>716.4</ele>
        <time>2023-07-04T15:52:07Z</time>
      </trkpt>
      <trkpt lat="45.96146" lon="2.85454">
        <ele>716.4</ele>
        <time>2023-07-04T15:52:08Z</time>
      </trkpt>
      <trkpt lat="45.96149" lon="2.85458">
        <ele>716.1</ele>
        <time>2023-07-04T15:52:09Z</time>
      </trkpt>
      <trkpt lat="45.9615" lon="2.8546">
        <ele>716.1</ele>
        <time>2023-07-04T15:52:10Z</time>
      </trkpt>
      <trkpt lat="45.96152" lon="2.85463">
        <ele>715.8</ele>
        <time>2023-07-04T15:52:11Z</time>
      </trkpt>
      <trkpt lat="45.96154" lon="2.85467">
        <ele>715.5</ele>
        <time>2023-07-04T15:52:12Z</time>
      </trkpt>
      <trkpt lat="45.96156" lon="2.85469">
        <ele>715.5</ele>
        <time>2023-07-04T15:52:13Z</time>
      </trkpt>
      <trkpt lat="45.96158" lon="2.85472">
        <ele>715.2</ele>
        <time>2023-07-04T15:52:14Z</time>
      </trkpt>
      <trkpt lat="45.9616" lon="2.85474">
        <ele>714.9</ele>
        <time>2023-07-04T15:52:15Z</time>
      </trkpt>
      <trkpt lat="45.96165" lon="2.85478">
        <ele>714.2</ele>
        <time>2023-07-04T15:52:16Z</time>
      </trkpt>
      <trkpt lat="45.96168" lon="2.8548">
        <ele>713.9</ele>
        <time>2023-07-04T15:52:17Z</time>
      </trkpt>
      <trkpt lat="45.96171" lon="2.85483">
        <ele>713.5</ele>
        <time>2023-07-04T15:52:19Z</time>
      </trkpt>
      <trkpt lat="45.96175" lon="2.85487">
        <ele>713</ele>
        <time>2023-07-04T15:52:20Z</time>
      </trkpt>
      <trkpt lat="45.96177" lon="2.8549">
        <ele>713</ele>
        <time>2023-07-04T15:52:21Z</time>
      </trkpt>
      <trkpt lat="45.9618" lon="2.85492">
        <ele>712.5</ele>
        <time>2023-07-04T15:52:22Z</time>
      </trkpt>
      <trkpt lat="45.96183" lon="2.85494">
        <ele>712.1</ele>
        <time>2023-07-04T15:52:23Z</time>
      </trkpt>
      <trkpt lat="45.96186" lon="2.85497">
        <ele>711.4</ele>
        <time>2023-07-04T15:52:24Z</time>
      </trkpt>
      <trkpt lat="45.96186" lon="2.85497">
        <ele>710.8</ele>
        <time>2023-07-04T15:52:25Z</time>
      </trkpt>
      <trkpt lat="45.96188" lon="2.85502">
        <ele>710.6</ele>
        <time>2023-07-04T15:52:26Z</time>
      </trkpt>
      <trkpt lat="45.96189" lon="2.85503">
        <ele>710.6</ele>
        <time>2023-07-04T15:52:27Z</time>
      </trkpt>
      <trkpt lat="45.96192" lon="2.85506">
        <ele>709.8</ele>
        <time>2023-07-04T15:52:28Z</time>
      </trkpt>
      <trkpt lat="45.96193" lon="2.85507">
        <ele>709.1</ele>
        <time>2023-07-04T15:52:29Z</time>
      </trkpt>
      <trkpt lat="45.96197" lon="2.8551">
        <ele>708.3</ele>
        <time>2023-07-04T15:52:30Z</time>
      </trkpt>
      <trkpt lat="45.96198" lon="2.85511">
        <ele>708.2</ele>
        <time>2023-07-04T15:52:31Z</time>
      </trkpt>
      <trkpt lat="45.96201" lon="2.85513">
        <ele>706.9</ele>
        <time>2023-07-04T15:52:32Z</time>
      </trkpt>
      <trkpt lat="45.96203" lon="2.85515">
        <ele>706.8</ele>
        <time>2023-07-04T15:52:33Z</time>
      </trkpt>
      <trkpt lat="45.96206" lon="2.85518">
        <ele>706.1</ele>
        <time>2023-07-04T15:52:34Z</time>
      </trkpt>
      <trkpt lat="45.9621" lon="2.85521">
        <ele>705.5</ele>
        <time>2023-07-04T15:52:35Z</time>
      </trkpt>
      <trkpt lat="45.96211" lon="2.85522">
        <ele>705.1</ele>
        <time>2023-07-04T15:52:36Z</time>
      </trkpt>
      <trkpt lat="45.96215" lon="2.85524">
        <ele>704.7</ele>
        <time>2023-07-04T15:52:37Z</time>
      </trkpt>
      <trkpt lat="45.96215" lon="2.85524">
        <ele>704.7</ele>
        <time>2023-07-04T15:52:38Z</time>
      </trkpt>
      <trkpt lat="45.96219" lon="2.85526">
        <ele>704</ele>
        <time>2023-07-04T15:52:39Z</time>
      </trkpt>
      <trkpt lat="45.9622" lon="2.85526">
        <ele>703.9</ele>
        <time>2023-07-04T15:52:40Z</time>
      </trkpt>
      <trkpt lat="45.96223" lon="2.85527">
        <ele>703.6</ele>
        <time>2023-07-04T15:52:41Z</time>
      </trkpt>
      <trkpt lat="45.96224" lon="2.85527">
        <ele>703.6</ele>
        <time>2023-07-04T15:52:42Z</time>
      </trkpt>
      <trkpt lat="45.96226" lon="2.85528">
        <ele>703.3</ele>
        <time>2023-07-04T15:52:43Z</time>
      </trkpt>
      <trkpt lat="45.96226" lon="2.85529">
        <ele>703.3</ele>
        <time>2023-07-04T15:52:44Z</time>
      </trkpt>
      <trkpt lat="45.96227" lon="2.85529">
        <ele>703.1</ele>
        <time>2023-07-04T15:52:45Z</time>
      </trkpt>
      <trkpt lat="45.96228" lon="2.8553">
        <ele>702.9</ele>
        <time>2023-07-04T15:52:46Z</time>
      </trkpt>
      <trkpt lat="45.96229" lon="2.85531">
        <ele>702.8</ele>
        <time>2023-07-04T15:52:47Z</time>
      </trkpt>
      <trkpt lat="45.9623" lon="2.85532">
        <ele>702.8</ele>
        <time>2023-07-04T15:52:48Z</time>
      </trkpt>
      <trkpt lat="45.96233" lon="2.85532">
        <ele>702.6</ele>
        <time>2023-07-04T15:52:49Z</time>
      </trkpt>
      <trkpt lat="45.96234" lon="2.85531">
        <ele>702.4</ele>
        <time>2023-07-04T15:52:50Z</time>
      </trkpt>
      <trkpt lat="45.96236" lon="2.85529">
        <ele>702.4</ele>
        <time>2023-07-04T15:52:51Z</time>
      </trkpt>
      <trkpt lat="45.96236" lon="2.85527">
        <ele>702.4</ele>
        <time>2023-07-04T15:52:52Z</time>
      </trkpt>
      <trkpt lat="45.96238" lon="2.85524">
        <ele>702.2</ele>
        <time>2023-07-04T15:52:53Z</time>
      </trkpt>
      <trkpt lat="45.96241" lon="2.8552">
        <ele>702</ele>
        <time>2023-07-04T15:52:54Z</time>
      </trkpt>
      <trkpt lat="45.96242" lon="2.8552">
        <ele>701.9</ele>
        <time>2023-07-04T15:52:55Z</time>
      </trkpt>
      <trkpt lat="45.96245" lon="2.8552">
        <ele>701.7</ele>
        <time>2023-07-04T15:52:56Z</time>
      </trkpt>
      <trkpt lat="45.96246" lon="2.8552">
        <ele>701.4</ele>
        <time>2023-07-04T15:52:57Z</time>
      </trkpt>
      <trkpt lat="45.96249" lon="2.8552">
        <ele>701.3</ele>
        <time>2023-07-04T15:52:58Z</time>
      </trkpt>
      <trkpt lat="45.96253" lon="2.8552">
        <ele>700.6</ele>
        <time>2023-07-04T15:52:59Z</time>
      </trkpt>
      <trkpt lat="45.96254" lon="2.8552">
        <ele>700.5</ele>
        <time>2023-07-04T15:53:00Z</time>
      </trkpt>
      <trkpt lat="45.96259" lon="2.8552">
        <ele>699.9</ele>
        <time>2023-07-04T15:53:01Z</time>
      </trkpt>
      <trkpt lat="45.9626" lon="2.8552">
        <ele>699.9</ele>
        <time>2023-07-04T15:53:02Z</time>
      </trkpt>
      <trkpt lat="45.96263" lon="2.8552">
        <ele>699.6</ele>
        <time>2023-07-04T15:53:03Z</time>
      </trkpt>
      <trkpt lat="45.96267" lon="2.85519">
        <ele>699.1</ele>
        <time>2023-07-04T15:53:04Z</time>
      </trkpt>
      <trkpt lat="45.9627" lon="2.85519">
        <ele>698.8</ele>
        <time>2023-07-04T15:53:05Z</time>
      </trkpt>
      <trkpt lat="45.96272" lon="2.85519">
        <ele>698.8</ele>
        <time>2023-07-04T15:53:06Z</time>
      </trkpt>
      <trkpt lat="45.96276" lon="2.85518">
        <ele>698.2</ele>
        <time>2023-07-04T15:53:07Z</time>
      </trkpt>
      <trkpt lat="45.96279" lon="2.85518">
        <ele>698.1</ele>
        <time>2023-07-04T15:53:08Z</time>
      </trkpt>
      <trkpt lat="45.96283" lon="2.85517">
        <ele>697.4</ele>
        <time>2023-07-04T15:53:09Z</time>
      </trkpt>
      <trkpt lat="45.96284" lon="2.85517">
        <ele>697.4</ele>
        <time>2023-07-04T15:53:10Z</time>
      </trkpt>
      <trkpt lat="45.96287" lon="2.85517">
        <ele>697</ele>
        <time>2023-07-04T15:53:11Z</time>
      </trkpt>
      <trkpt lat="45.96291" lon="2.85516">
        <ele>696.3</ele>
        <time>2023-07-04T15:53:12Z</time>
      </trkpt>
      <trkpt lat="45.96294" lon="2.85515">
        <ele>695.4</ele>
        <time>2023-07-04T15:53:13Z</time>
      </trkpt>
      <trkpt lat="45.96296" lon="2.85515">
        <ele>695.3</ele>
        <time>2023-07-04T15:53:14Z</time>
      </trkpt>
      <trkpt lat="45.96299" lon="2.85515">
        <ele>694.9</ele>
        <time>2023-07-04T15:53:15Z</time>
      </trkpt>
      <trkpt lat="45.96303" lon="2.85515">
        <ele>693.9</ele>
        <time>2023-07-04T15:53:16Z</time>
      </trkpt>
      <trkpt lat="45.96305" lon="2.85515">
        <ele>693.3</ele>
        <time>2023-07-04T15:53:17Z</time>
      </trkpt>
      <trkpt lat="45.96308" lon="2.85515">
        <ele>692.7</ele>
        <time>2023-07-04T15:53:18Z</time>
      </trkpt>
      <trkpt lat="45.96313" lon="2.85514">
        <ele>692.1</ele>
        <time>2023-07-04T15:53:19Z</time>
      </trkpt>
      <trkpt lat="45.96314" lon="2.85514">
        <ele>692.1</ele>
        <time>2023-07-04T15:53:20Z</time>
      </trkpt>
      <trkpt lat="45.96317" lon="2.85514">
        <ele>691.5</ele>
        <time>2023-07-04T15:53:21Z</time>
      </trkpt>
      <trkpt lat="45.9632" lon="2.85515">
        <ele>691</ele>
        <time>2023-07-04T15:53:22Z</time>
      </trkpt>
      <trkpt lat="45.96323" lon="2.85515">
        <ele>690.4</ele>
        <time>2023-07-04T15:53:23Z</time>
      </trkpt>
      <trkpt lat="45.96326" lon="2.85515">
        <ele>689.9</ele>
        <time>2023-07-04T15:53:24Z</time>
      </trkpt>
      <trkpt lat="45.96329" lon="2.85515">
        <ele>689.3</ele>
        <time>2023-07-04T15:53:25Z</time>
      </trkpt>
      <trkpt lat="45.96332" lon="2.85516">
        <ele>688.6</ele>
        <time>2023-07-04T15:53:26Z</time>
      </trkpt>
      <trkpt lat="45.96335" lon="2.85516">
        <ele>687.9</ele>
        <time>2023-07-04T15:53:27Z</time>
      </trkpt>
      <trkpt lat="45.96338" lon="2.85515">
        <ele>687.2</ele>
        <time>2023-07-04T15:53:28Z</time>
      </trkpt>
      <trkpt lat="45.96339" lon="2.85514">
        <ele>686.5</ele>
        <time>2023-07-04T15:53:29Z</time>
      </trkpt>
      <trkpt lat="45.96339" lon="2.85513">
        <ele>686.5</ele>
        <time>2023-07-04T15:53:30Z</time>
      </trkpt>
      <trkpt lat="45.96338" lon="2.85512">
        <ele>687.1</ele>
        <time>2023-07-04T15:53:31Z</time>
      </trkpt>
      <trkpt lat="45.96338" lon="2.8551">
        <ele>686.3</ele>
        <time>2023-07-04T15:53:32Z</time>
      </trkpt>
      <trkpt lat="45.96336" lon="2.85508">
        <ele>686.2</ele>
        <time>2023-07-04T15:53:33Z</time>
      </trkpt>
      <trkpt lat="45.96335" lon="2.85507">
        <ele>686.2</ele>
        <time>2023-07-04T15:53:34Z</time>
      </trkpt>
      <trkpt lat="45.96333" lon="2.85505">
        <ele>686.1</ele>
        <time>2023-07-04T15:53:35Z</time>
      </trkpt>
      <trkpt lat="45.96332" lon="2.85504">
        <ele>686</ele>
        <time>2023-07-04T15:53:36Z</time>
      </trkpt>
      <trkpt lat="45.96332" lon="2.85503">
        <ele>686</ele>
        <time>2023-07-04T15:53:37Z</time>
      </trkpt>
      <trkpt lat="45.96332" lon="2.85501">
        <ele>685.9</ele>
        <time>2023-07-04T15:53:38Z</time>
      </trkpt>
      <trkpt lat="45.96333" lon="2.85501">
        <ele>685.2</ele>
        <time>2023-07-04T15:53:39Z</time>
      </trkpt>
      <trkpt lat="45.96337" lon="2.855">
        <ele>684.4</ele>
        <time>2023-07-04T15:53:40Z</time>
      </trkpt>
      <trkpt lat="45.96338" lon="2.855">
        <ele>684.4</ele>
        <time>2023-07-04T15:53:41Z</time>
      </trkpt>
      <trkpt lat="45.96341" lon="2.85499">
        <ele>683</ele>
        <time>2023-07-04T15:53:42Z</time>
      </trkpt>
      <trkpt lat="45.96343" lon="2.85499">
        <ele>683</ele>
        <time>2023-07-04T15:53:43Z</time>
      </trkpt>
      <trkpt lat="45.96346" lon="2.85497">
        <ele>681.6</ele>
        <time>2023-07-04T15:53:44Z</time>
      </trkpt>
      <trkpt lat="45.96348" lon="2.85497">
        <ele>680.9</ele>
        <time>2023-07-04T15:53:45Z</time>
      </trkpt>
      <trkpt lat="45.96351" lon="2.85495">
        <ele>680.2</ele>
        <time>2023-07-04T15:53:46Z</time>
      </trkpt>
      <trkpt lat="45.96354" lon="2.85494">
        <ele>678.9</ele>
        <time>2023-07-04T15:53:47Z</time>
      </trkpt>
      <trkpt lat="45.96358" lon="2.85494">
        <ele>678.1</ele>
        <time>2023-07-04T15:53:48Z</time>
      </trkpt>
      <trkpt lat="45.96361" lon="2.85494">
        <ele>677.4</ele>
        <time>2023-07-04T15:53:49Z</time>
      </trkpt>
      <trkpt lat="45.96364" lon="2.85494">
        <ele>676.7</ele>
        <time>2023-07-04T15:53:51Z</time>
      </trkpt>
      <trkpt lat="45.9637" lon="2.85492">
        <ele>675.4</ele>
        <time>2023-07-04T15:53:52Z</time>
      </trkpt>
      <trkpt lat="45.96373" lon="2.85491">
        <ele>674.8</ele>
        <time>2023-07-04T15:53:54Z</time>
      </trkpt>
      <trkpt lat="45.96377" lon="2.85491">
        <ele>674.1</ele>
        <time>2023-07-04T15:53:55Z</time>
      </trkpt>
      <trkpt lat="45.96378" lon="2.8549">
        <ele>673.5</ele>
        <time>2023-07-04T15:53:56Z</time>
      </trkpt>
      <trkpt lat="45.96383" lon="2.85492">
        <ele>672.3</ele>
        <time>2023-07-04T15:53:57Z</time>
      </trkpt>
      <trkpt lat="45.96386" lon="2.85492">
        <ele>672.3</ele>
        <time>2023-07-04T15:53:58Z</time>
      </trkpt>
      <trkpt lat="45.9639" lon="2.85495">
        <ele>671.7</ele>
        <time>2023-07-04T15:54:00Z</time>
      </trkpt>
      <trkpt lat="45.96392" lon="2.85496">
        <ele>671</ele>
        <time>2023-07-04T15:54:01Z</time>
      </trkpt>
      <trkpt lat="45.96394" lon="2.85497">
        <ele>671</ele>
        <time>2023-07-04T15:54:02Z</time>
      </trkpt>
      <trkpt lat="45.96397" lon="2.855">
        <ele>671.1</ele>
        <time>2023-07-04T15:54:04Z</time>
      </trkpt>
      <trkpt lat="45.96401" lon="2.85504">
        <ele>671</ele>
        <time>2023-07-04T15:54:05Z</time>
      </trkpt>
      <trkpt lat="45.96403" lon="2.85505">
        <ele>671</ele>
        <time>2023-07-04T15:54:07Z</time>
      </trkpt>
      <trkpt lat="45.96407" lon="2.85506">
        <ele>670.2</ele>
        <time>2023-07-04T15:54:08Z</time>
      </trkpt>
      <trkpt lat="45.9641" lon="2.85507">
        <ele>669.7</ele>
        <time>2023-07-04T15:54:09Z</time>
      </trkpt>
      <trkpt lat="45.96411" lon="2.85507">
        <ele>669.7</ele>
        <time>2023-07-04T15:54:10Z</time>
      </trkpt>
      <trkpt lat="45.96415" lon="2.85507">
        <ele>669.2</ele>
        <time>2023-07-04T15:54:11Z</time>
      </trkpt>
      <trkpt lat="45.96417" lon="2.85507">
        <ele>669.6</ele>
        <time>2023-07-04T15:54:12Z</time>
      </trkpt>
      <trkpt lat="45.9642" lon="2.85508">
        <ele>669</ele>
        <time>2023-07-04T15:54:13Z</time>
      </trkpt>
      <trkpt lat="45.96422" lon="2.85508">
        <ele>669</ele>
        <time>2023-07-04T15:54:14Z</time>
      </trkpt>
      <trkpt lat="45.96425" lon="2.85508">
        <ele>668.1</ele>
        <time>2023-07-04T15:54:15Z</time>
      </trkpt>
      <trkpt lat="45.96426" lon="2.85508">
        <ele>668</ele>
        <time>2023-07-04T15:54:16Z</time>
      </trkpt>
      <trkpt lat="45.96431" lon="2.85509">
        <ele>667.1</ele>
        <time>2023-07-04T15:54:17Z</time>
      </trkpt>
      <trkpt lat="45.96434" lon="2.85509">
        <ele>666.6</ele>
        <time>2023-07-04T15:54:18Z</time>
      </trkpt>
      <trkpt lat="45.96439" lon="2.8551">
        <ele>666.1</ele>
        <time>2023-07-04T15:54:19Z</time>
      </trkpt>
      <trkpt lat="45.96441" lon="2.8551">
        <ele>665.5</ele>
        <time>2023-07-04T15:54:20Z</time>
      </trkpt>
      <trkpt lat="45.96444" lon="2.85511">
        <ele>664.9</ele>
        <time>2023-07-04T15:54:21Z</time>
      </trkpt>
      <trkpt lat="45.96447" lon="2.85512">
        <ele>665.2</ele>
        <time>2023-07-04T15:54:22Z</time>
      </trkpt>
      <trkpt lat="45.96451" lon="2.85512">
        <ele>664.6</ele>
        <time>2023-07-04T15:54:23Z</time>
      </trkpt>
      <trkpt lat="45.96454" lon="2.85513">
        <ele>664</ele>
        <time>2023-07-04T15:54:24Z</time>
      </trkpt>
      <trkpt lat="45.96456" lon="2.85514">
        <ele>663.5</ele>
        <time>2023-07-04T15:54:25Z</time>
      </trkpt>
      <trkpt lat="45.96459" lon="2.85516">
        <ele>663.8</ele>
        <time>2023-07-04T15:54:26Z</time>
      </trkpt>
      <trkpt lat="45.9646" lon="2.85517">
        <ele>663.8</ele>
        <time>2023-07-04T15:54:27Z</time>
      </trkpt>
      <trkpt lat="45.96462" lon="2.85519">
        <ele>663.3</ele>
        <time>2023-07-04T15:54:28Z</time>
      </trkpt>
      <trkpt lat="45.96466" lon="2.85519">
        <ele>662.8</ele>
        <time>2023-07-04T15:54:29Z</time>
      </trkpt>
      <trkpt lat="45.96467" lon="2.85518">
        <ele>662.3</ele>
        <time>2023-07-04T15:54:30Z</time>
      </trkpt>
      <trkpt lat="45.9647" lon="2.85515">
        <ele>660.9</ele>
        <time>2023-07-04T15:54:31Z</time>
      </trkpt>
      <trkpt lat="45.96471" lon="2.85514">
        <ele>660.9</ele>
        <time>2023-07-04T15:54:32Z</time>
      </trkpt>
      <trkpt lat="45.96475" lon="2.85513">
        <ele>660.3</ele>
        <time>2023-07-04T15:54:33Z</time>
      </trkpt>
      <trkpt lat="45.96476" lon="2.85512">
        <ele>659.8</ele>
        <time>2023-07-04T15:54:34Z</time>
      </trkpt>
      <trkpt lat="45.96478" lon="2.85509">
        <ele>658.9</ele>
        <time>2023-07-04T15:54:35Z</time>
      </trkpt>
      <trkpt lat="45.96479" lon="2.85508">
        <ele>658.4</ele>
        <time>2023-07-04T15:54:36Z</time>
      </trkpt>
      <trkpt lat="45.96481" lon="2.85505">
        <ele>657.6</ele>
        <time>2023-07-04T15:54:37Z</time>
      </trkpt>
      <trkpt lat="45.96481" lon="2.85504">
        <ele>657.5</ele>
        <time>2023-07-04T15:54:38Z</time>
      </trkpt>
      <trkpt lat="45.96482" lon="2.85503">
        <ele>656.3</ele>
        <time>2023-07-04T15:54:39Z</time>
      </trkpt>
      <trkpt lat="45.96482" lon="2.85501">
        <ele>656.3</ele>
        <time>2023-07-04T15:54:40Z</time>
      </trkpt>
      <trkpt lat="45.96482" lon="2.85499">
        <ele>656.2</ele>
        <time>2023-07-04T15:54:41Z</time>
      </trkpt>
      <trkpt lat="45.96481" lon="2.85496">
        <ele>655.9</ele>
        <time>2023-07-04T15:54:42Z</time>
      </trkpt>
      <trkpt lat="45.96481" lon="2.85495">
        <ele>655.8</ele>
        <time>2023-07-04T15:54:43Z</time>
      </trkpt>
      <trkpt lat="45.96481" lon="2.85494">
        <ele>655.1</ele>
        <time>2023-07-04T15:54:44Z</time>
      </trkpt>
      <trkpt lat="45.96479" lon="2.8549">
        <ele>655</ele>
        <time>2023-07-04T15:54:45Z</time>
      </trkpt>
      <trkpt lat="45.96478" lon="2.85489">
        <ele>654.3</ele>
        <time>2023-07-04T15:54:46Z</time>
      </trkpt>
      <trkpt lat="45.96477" lon="2.85485">
        <ele>654</ele>
        <time>2023-07-04T15:54:47Z</time>
      </trkpt>
      <trkpt lat="45.96475" lon="2.85481">
        <ele>653.8</ele>
        <time>2023-07-04T15:54:48Z</time>
      </trkpt>
      <trkpt lat="45.96474" lon="2.85479">
        <ele>653.7</ele>
        <time>2023-07-04T15:54:49Z</time>
      </trkpt>
      <trkpt lat="45.96473" lon="2.85476">
        <ele>652.9</ele>
        <time>2023-07-04T15:54:50Z</time>
      </trkpt>
      <trkpt lat="45.96473" lon="2.85475">
        <ele>652.9</ele>
        <time>2023-07-04T15:54:51Z</time>
      </trkpt>
      <trkpt lat="45.96472" lon="2.85473">
        <ele>653.4</ele>
        <time>2023-07-04T15:54:52Z</time>
      </trkpt>
      <trkpt lat="45.96472" lon="2.85472">
        <ele>652.6</ele>
        <time>2023-07-04T15:54:53Z</time>
      </trkpt>
      <trkpt lat="45.96472" lon="2.85471">
        <ele>652.6</ele>
        <time>2023-07-04T15:54:54Z</time>
      </trkpt>
      <trkpt lat="45.96472" lon="2.8547">
        <ele>652.5</ele>
        <time>2023-07-04T15:54:55Z</time>
      </trkpt>
      <trkpt lat="45.96472" lon="2.8547">
        <ele>652.4</ele>
        <time>2023-07-04T15:54:56Z</time>
      </trkpt>
      <trkpt lat="45.96472" lon="2.8547">
        <ele>652.4</ele>
        <time>2023-07-04T15:54:57Z</time>
      </trkpt>
      <trkpt lat="45.96472" lon="2.8547">
        <ele>652.3</ele>
        <time>2023-07-04T15:54:58Z</time>
      </trkpt>
      <trkpt lat="45.96472" lon="2.85469">
        <ele>652.3</ele>
        <time>2023-07-04T15:54:59Z</time>
      </trkpt>
      <trkpt lat="45.96472" lon="2.85469">
        <ele>652.2</ele>
        <time>2023-07-04T15:55:00Z</time>
      </trkpt>
      <trkpt lat="45.96471" lon="2.85469">
        <ele>652.2</ele>
        <time>2023-07-04T15:55:01Z</time>
      </trkpt>
      <trkpt lat="45.96471" lon="2.85468">
        <ele>651.4</ele>
        <time>2023-07-04T15:55:02Z</time>
      </trkpt>
      <trkpt lat="45.96471" lon="2.85468">
        <ele>651.4</ele>
        <time>2023-07-04T15:55:03Z</time>
      </trkpt>
      <trkpt lat="45.96471" lon="2.85467">
        <ele>651.3</ele>
        <time>2023-07-04T15:55:04Z</time>
      </trkpt>
      <trkpt lat="45.96471" lon="2.85466">
        <ele>651.3</ele>
        <time>2023-07-04T15:55:05Z</time>
      </trkpt>
      <trkpt lat="45.96471" lon="2.85466">
        <ele>651.2</ele>
        <time>2023-07-04T15:55:06Z</time>
      </trkpt>
      <trkpt lat="45.96472" lon="2.85465">
        <ele>651.2</ele>
        <time>2023-07-04T15:55:07Z</time>
      </trkpt>
      <trkpt lat="45.96472" lon="2.85465">
        <ele>651.1</ele>
        <time>2023-07-04T15:55:08Z</time>
      </trkpt>
      <trkpt lat="45.96472" lon="2.85465">
        <ele>651.1</ele>
        <time>2023-07-04T15:55:09Z</time>
      </trkpt>
      <trkpt lat="45.96473" lon="2.85466">
        <ele>650.4</ele>
        <time>2023-07-04T15:55:10Z</time>
      </trkpt>
      <trkpt lat="45.96473" lon="2.85466">
        <ele>650.4</ele>
        <time>2023-07-04T15:55:11Z</time>
      </trkpt>
      <trkpt lat="45.96473" lon="2.85465">
        <ele>650.3</ele>
        <time>2023-07-04T15:55:12Z</time>
      </trkpt>
      <trkpt lat="45.96473" lon="2.85464">
        <ele>650.3</ele>
        <time>2023-07-04T15:55:13Z</time>
      </trkpt>
      <trkpt lat="45.96472" lon="2.85463">
        <ele>650.1</ele>
        <time>2023-07-04T15:55:14Z</time>
      </trkpt>
      <trkpt lat="45.96472" lon="2.85462">
        <ele>650.1</ele>
        <time>2023-07-04T15:55:15Z</time>
      </trkpt>
      <trkpt lat="45.96471" lon="2.85462">
        <ele>650</ele>
        <time>2023-07-04T15:55:16Z</time>
      </trkpt>
      <trkpt lat="45.9647" lon="2.85462">
        <ele>649.9</ele>
        <time>2023-07-04T15:55:17Z</time>
      </trkpt>
      <trkpt lat="45.96468" lon="2.85462">
        <ele>650.5</ele>
        <time>2023-07-04T15:55:18Z</time>
      </trkpt>
      <trkpt lat="45.96468" lon="2.85462">
        <ele>650.4</ele>
        <time>2023-07-04T15:55:19Z</time>
      </trkpt>
      <trkpt lat="45.96467" lon="2.85462">
        <ele>650.4</ele>
        <time>2023-07-04T15:55:20Z</time>
      </trkpt>
      <trkpt lat="45.96466" lon="2.85462">
        <ele>650.9</ele>
        <time>2023-07-04T15:55:21Z</time>
      </trkpt>
      <trkpt lat="45.96466" lon="2.85462">
        <ele>650.8</ele>
        <time>2023-07-04T15:55:22Z</time>
      </trkpt>
      <trkpt lat="45.96465" lon="2.8546">
        <ele>650.8</ele>
        <time>2023-07-04T15:55:23Z</time>
      </trkpt>
      <trkpt lat="45.96466" lon="2.85459">
        <ele>650.1</ele>
        <time>2023-07-04T15:55:24Z</time>
      </trkpt>
      <trkpt lat="45.96467" lon="2.85458">
        <ele>649.5</ele>
        <time>2023-07-04T15:55:25Z</time>
      </trkpt>
      <trkpt lat="45.96467" lon="2.85457">
        <ele>649.4</ele>
        <time>2023-07-04T15:55:26Z</time>
      </trkpt>
      <trkpt lat="45.96468" lon="2.85452">
        <ele>648.7</ele>
        <time>2023-07-04T15:55:28Z</time>
      </trkpt>
      <trkpt lat="45.9647" lon="2.85447">
        <ele>646.8</ele>
        <time>2023-07-04T15:55:29Z</time>
      </trkpt>
      <trkpt lat="45.9647" lon="2.85445">
        <ele>646.7</ele>
        <time>2023-07-04T15:55:30Z</time>
      </trkpt>
      <trkpt lat="45.96472" lon="2.85441">
        <ele>646</ele>
        <time>2023-07-04T15:55:31Z</time>
      </trkpt>
      <trkpt lat="45.96473" lon="2.85439">
        <ele>645.3</ele>
        <time>2023-07-04T15:55:32Z</time>
      </trkpt>
      <trkpt lat="45.96473" lon="2.85437">
        <ele>644.7</ele>
        <time>2023-07-04T15:55:33Z</time>
      </trkpt>
      <trkpt lat="45.96472" lon="2.85435">
        <ele>645.3</ele>
        <time>2023-07-04T15:55:34Z</time>
      </trkpt>
      <trkpt lat="45.9647" lon="2.85432">
        <ele>644.7</ele>
        <time>2023-07-04T15:55:35Z</time>
      </trkpt>
      <trkpt lat="45.96469" lon="2.85427">
        <ele>644.8</ele>
        <time>2023-07-04T15:55:36Z</time>
      </trkpt>
      <trkpt lat="45.96469" lon="2.85426">
        <ele>644.3</ele>
        <time>2023-07-04T15:55:37Z</time>
      </trkpt>
      <trkpt lat="45.9647" lon="2.85425">
        <ele>643.7</ele>
        <time>2023-07-04T15:55:38Z</time>
      </trkpt>
      <trkpt lat="45.96472" lon="2.85425">
        <ele>643.6</ele>
        <time>2023-07-04T15:55:39Z</time>
      </trkpt>
      <trkpt lat="45.96477" lon="2.85423">
        <ele>642.3</ele>
        <time>2023-07-04T15:55:41Z</time>
      </trkpt>
      <trkpt lat="45.96478" lon="2.85423">
        <ele>642.2</ele>
        <time>2023-07-04T15:55:42Z</time>
      </trkpt>
      <trkpt lat="45.96479" lon="2.85422">
        <ele>641.5</ele>
        <time>2023-07-04T15:55:43Z</time>
      </trkpt>
      <trkpt lat="45.96481" lon="2.85422">
        <ele>641.5</ele>
        <time>2023-07-04T15:55:44Z</time>
      </trkpt>
      <trkpt lat="45.96482" lon="2.85421">
        <ele>640.6</ele>
        <time>2023-07-04T15:55:45Z</time>
      </trkpt>
      <trkpt lat="45.96484" lon="2.85421">
        <ele>640.5</ele>
        <time>2023-07-04T15:55:46Z</time>
      </trkpt>
      <trkpt lat="45.96485" lon="2.8542">
        <ele>639.9</ele>
        <time>2023-07-04T15:55:47Z</time>
      </trkpt>
      <trkpt lat="45.96486" lon="2.85418">
        <ele>639.9</ele>
        <time>2023-07-04T15:55:48Z</time>
      </trkpt>
      <trkpt lat="45.96488" lon="2.85416">
        <ele>639.1</ele>
        <time>2023-07-04T15:55:49Z</time>
      </trkpt>
      <trkpt lat="45.9649" lon="2.85414">
        <ele>639.1</ele>
        <time>2023-07-04T15:55:50Z</time>
      </trkpt>
      <trkpt lat="45.96491" lon="2.85414">
        <ele>638.5</ele>
        <time>2023-07-04T15:55:51Z</time>
      </trkpt>
      <trkpt lat="45.96493" lon="2.85413">
        <ele>638.5</ele>
        <time>2023-07-04T15:55:52Z</time>
      </trkpt>
      <trkpt lat="45.96493" lon="2.85412">
        <ele>637.7</ele>
        <time>2023-07-04T15:55:53Z</time>
      </trkpt>
      <trkpt lat="45.96494" lon="2.85412">
        <ele>637.6</ele>
        <time>2023-07-04T15:55:54Z</time>
      </trkpt>
      <trkpt lat="45.96496" lon="2.85411">
        <ele>637.6</ele>
        <time>2023-07-04T15:55:55Z</time>
      </trkpt>
      <trkpt lat="45.96497" lon="2.85409">
        <ele>636.9</ele>
        <time>2023-07-04T15:55:56Z</time>
      </trkpt>
      <trkpt lat="45.96499" lon="2.85408">
        <ele>636.8</ele>
        <time>2023-07-04T15:55:57Z</time>
      </trkpt>
      <trkpt lat="45.965" lon="2.85407">
        <ele>636.1</ele>
        <time>2023-07-04T15:55:58Z</time>
      </trkpt>
      <trkpt lat="45.96502" lon="2.85407">
        <ele>636</ele>
        <time>2023-07-04T15:55:59Z</time>
      </trkpt>
      <trkpt lat="45.96503" lon="2.85408">
        <ele>635.3</ele>
        <time>2023-07-04T15:56:00Z</time>
      </trkpt>
      <trkpt lat="45.96506" lon="2.85409">
        <ele>634.9</ele>
        <time>2023-07-04T15:56:01Z</time>
      </trkpt>
      <trkpt lat="45.96507" lon="2.8541">
        <ele>634.8</ele>
        <time>2023-07-04T15:56:02Z</time>
      </trkpt>
      <trkpt lat="45.96509" lon="2.85411">
        <ele>634.2</ele>
        <time>2023-07-04T15:56:03Z</time>
      </trkpt>
      <trkpt lat="45.9651" lon="2.85414">
        <ele>634.4</ele>
        <time>2023-07-04T15:56:05Z</time>
      </trkpt>
      <trkpt lat="45.96512" lon="2.85416">
        <ele>633.8</ele>
        <time>2023-07-04T15:56:06Z</time>
      </trkpt>
      <trkpt lat="45.96513" lon="2.85417">
        <ele>634.1</ele>
        <time>2023-07-04T15:56:07Z</time>
      </trkpt>
      <trkpt lat="45.96516" lon="2.85418">
        <ele>633.5</ele>
        <time>2023-07-04T15:56:08Z</time>
      </trkpt>
      <trkpt lat="45.96517" lon="2.85418">
        <ele>633.5</ele>
        <time>2023-07-04T15:56:09Z</time>
      </trkpt>
      <trkpt lat="45.9652" lon="2.85419">
        <ele>632.4</ele>
        <time>2023-07-04T15:56:10Z</time>
      </trkpt>
      <trkpt lat="45.96521" lon="2.85419">
        <ele>632.3</ele>
        <time>2023-07-04T15:56:11Z</time>
      </trkpt>
      <trkpt lat="45.96525" lon="2.85421">
        <ele>631.7</ele>
        <time>2023-07-04T15:56:12Z</time>
      </trkpt>
      <trkpt lat="45.96526" lon="2.85421">
        <ele>631.7</ele>
        <time>2023-07-04T15:56:13Z</time>
      </trkpt>
      <trkpt lat="45.96529" lon="2.85421">
        <ele>631</ele>
        <time>2023-07-04T15:56:14Z</time>
      </trkpt>
      <trkpt lat="45.96532" lon="2.85421">
        <ele>630.4</ele>
        <time>2023-07-04T15:56:15Z</time>
      </trkpt>
      <trkpt lat="45.96535" lon="2.8542">
        <ele>629.9</ele>
        <time>2023-07-04T15:56:16Z</time>
      </trkpt>
      <trkpt lat="45.96539" lon="2.85419">
        <ele>628.9</ele>
        <time>2023-07-04T15:56:17Z</time>
      </trkpt>
      <trkpt lat="45.96541" lon="2.85419">
        <ele>628.8</ele>
        <time>2023-07-04T15:56:18Z</time>
      </trkpt>
      <trkpt lat="45.96545" lon="2.85417">
        <ele>627.9</ele>
        <time>2023-07-04T15:56:19Z</time>
      </trkpt>
      <trkpt lat="45.96548" lon="2.85418">
        <ele>627.5</ele>
        <time>2023-07-04T15:56:21Z</time>
      </trkpt>
      <trkpt lat="45.96549" lon="2.85419">
        <ele>627.4</ele>
        <time>2023-07-04T15:56:22Z</time>
      </trkpt>
      <trkpt lat="45.9655" lon="2.85419">
        <ele>627</ele>
        <time>2023-07-04T15:56:23Z</time>
      </trkpt>
      <trkpt lat="45.96552" lon="2.8542">
        <ele>626.9</ele>
        <time>2023-07-04T15:56:24Z</time>
      </trkpt>
      <trkpt lat="45.96555" lon="2.85419">
        <ele>626.5</ele>
        <time>2023-07-04T15:56:25Z</time>
      </trkpt>
      <trkpt lat="45.96556" lon="2.85419">
        <ele>626</ele>
        <time>2023-07-04T15:56:26Z</time>
      </trkpt>
      <trkpt lat="45.96559" lon="2.85417">
        <ele>625.4</ele>
        <time>2023-07-04T15:56:27Z</time>
      </trkpt>
      <trkpt lat="45.9656" lon="2.85417">
        <ele>625.4</ele>
        <time>2023-07-04T15:56:28Z</time>
      </trkpt>
      <trkpt lat="45.96563" lon="2.85418">
        <ele>624.8</ele>
        <time>2023-07-04T15:56:29Z</time>
      </trkpt>
      <trkpt lat="45.96564" lon="2.85418">
        <ele>624.8</ele>
        <time>2023-07-04T15:56:30Z</time>
      </trkpt>
      <trkpt lat="45.96567" lon="2.8542">
        <ele>624.3</ele>
        <time>2023-07-04T15:56:31Z</time>
      </trkpt>
      <trkpt lat="45.96568" lon="2.85421">
        <ele>623.8</ele>
        <time>2023-07-04T15:56:32Z</time>
      </trkpt>
      <trkpt lat="45.9657" lon="2.85424">
        <ele>624.2</ele>
        <time>2023-07-04T15:56:33Z</time>
      </trkpt>
      <trkpt lat="45.96571" lon="2.85424">
        <ele>623.7</ele>
        <time>2023-07-04T15:56:34Z</time>
      </trkpt>
      <trkpt lat="45.96574" lon="2.85426">
        <ele>623.6</ele>
        <time>2023-07-04T15:56:35Z</time>
      </trkpt>
      <trkpt lat="45.96575" lon="2.85426">
        <ele>623.6</ele>
        <time>2023-07-04T15:56:36Z</time>
      </trkpt>
      <trkpt lat="45.96578" lon="2.85426">
        <ele>622.9</ele>
        <time>2023-07-04T15:56:37Z</time>
      </trkpt>
      <trkpt lat="45.96581" lon="2.85426">
        <ele>622.2</ele>
        <time>2023-07-04T15:56:38Z</time>
      </trkpt>
      <trkpt lat="45.96582" lon="2.85426">
        <ele>622.2</ele>
        <time>2023-07-04T15:56:39Z</time>
      </trkpt>
      <trkpt lat="45.96586" lon="2.85426">
        <ele>620.8</ele>
        <time>2023-07-04T15:56:40Z</time>
      </trkpt>
      <trkpt lat="45.96587" lon="2.85426">
        <ele>620.7</ele>
        <time>2023-07-04T15:56:41Z</time>
      </trkpt>
      <trkpt lat="45.9659" lon="2.85426">
        <ele>619.6</ele>
        <time>2023-07-04T15:56:42Z</time>
      </trkpt>
      <trkpt lat="45.96594" lon="2.85425">
        <ele>619</ele>
        <time>2023-07-04T15:56:43Z</time>
      </trkpt>
      <trkpt lat="45.96597" lon="2.85425">
        <ele>618.4</ele>
        <time>2023-07-04T15:56:44Z</time>
      </trkpt>
      <trkpt lat="45.966" lon="2.85425">
        <ele>617.7</ele>
        <time>2023-07-04T15:56:45Z</time>
      </trkpt>
      <trkpt lat="45.96603" lon="2.85424">
        <ele>617.1</ele>
        <time>2023-07-04T15:56:46Z</time>
      </trkpt>
      <trkpt lat="45.96606" lon="2.85422">
        <ele>616.5</ele>
        <time>2023-07-04T15:56:47Z</time>
      </trkpt>
      <trkpt lat="45.96611" lon="2.8542">
        <ele>614.8</ele>
        <time>2023-07-04T15:56:49Z</time>
      </trkpt>
      <trkpt lat="45.96616" lon="2.85416">
        <ele>613.2</ele>
        <time>2023-07-04T15:56:50Z</time>
      </trkpt>
      <trkpt lat="45.96619" lon="2.85415">
        <ele>612.6</ele>
        <time>2023-07-04T15:56:52Z</time>
      </trkpt>
      <trkpt lat="45.96623" lon="2.85413">
        <ele>611.7</ele>
        <time>2023-07-04T15:56:53Z</time>
      </trkpt>
      <trkpt lat="45.96624" lon="2.85412">
        <ele>611.7</ele>
        <time>2023-07-04T15:56:54Z</time>
      </trkpt>
      <trkpt lat="45.96627" lon="2.8541">
        <ele>611.1</ele>
        <time>2023-07-04T15:56:55Z</time>
      </trkpt>
      <trkpt lat="45.96629" lon="2.8541">
        <ele>610.5</ele>
        <time>2023-07-04T15:56:56Z</time>
      </trkpt>
      <trkpt lat="45.96633" lon="2.85409">
        <ele>610</ele>
        <time>2023-07-04T15:56:57Z</time>
      </trkpt>
      <trkpt lat="45.96636" lon="2.85409">
        <ele>609.4</ele>
        <time>2023-07-04T15:56:59Z</time>
      </trkpt>
      <trkpt lat="45.96637" lon="2.85409">
        <ele>608.8</ele>
        <time>2023-07-04T15:57:00Z</time>
      </trkpt>
      <trkpt lat="45.96638" lon="2.8541">
        <ele>608.7</ele>
        <time>2023-07-04T15:57:01Z</time>
      </trkpt>
      <trkpt lat="45.96641" lon="2.85411">
        <ele>608.1</ele>
        <time>2023-07-04T15:57:02Z</time>
      </trkpt>
      <trkpt lat="45.96644" lon="2.85412">
        <ele>607.1</ele>
        <time>2023-07-04T15:57:03Z</time>
      </trkpt>
      <trkpt lat="45.96645" lon="2.85412">
        <ele>607</ele>
        <time>2023-07-04T15:57:04Z</time>
      </trkpt>
      <trkpt lat="45.96648" lon="2.85413">
        <ele>606.6</ele>
        <time>2023-07-04T15:57:05Z</time>
      </trkpt>
      <trkpt lat="45.9665" lon="2.85413">
        <ele>606</ele>
        <time>2023-07-04T15:57:06Z</time>
      </trkpt>
      <trkpt lat="45.96653" lon="2.85413">
        <ele>605.5</ele>
        <time>2023-07-04T15:57:07Z</time>
      </trkpt>
      <trkpt lat="45.96654" lon="2.85413">
        <ele>605.4</ele>
        <time>2023-07-04T15:57:08Z</time>
      </trkpt>
      <trkpt lat="45.96657" lon="2.85413">
        <ele>604.7</ele>
        <time>2023-07-04T15:57:09Z</time>
      </trkpt>
      <trkpt lat="45.9666" lon="2.85412">
        <ele>603.5</ele>
        <time>2023-07-04T15:57:10Z</time>
      </trkpt>
      <trkpt lat="45.96662" lon="2.85411">
        <ele>603.4</ele>
        <time>2023-07-04T15:57:11Z</time>
      </trkpt>
      <trkpt lat="45.96663" lon="2.8541">
        <ele>603.4</ele>
        <time>2023-07-04T15:57:12Z</time>
      </trkpt>
      <trkpt lat="45.96664" lon="2.85408">
        <ele>602.5</ele>
        <time>2023-07-04T15:57:13Z</time>
      </trkpt>
      <trkpt lat="45.96664" lon="2.85403">
        <ele>602.4</ele>
        <time>2023-07-04T15:57:14Z</time>
      </trkpt>
      <trkpt lat="45.96663" lon="2.85402">
        <ele>603.1</ele>
        <time>2023-07-04T15:57:15Z</time>
      </trkpt>
      <trkpt lat="45.96662" lon="2.85399">
        <ele>603</ele>
        <time>2023-07-04T15:57:16Z</time>
      </trkpt>
      <trkpt lat="45.96661" lon="2.85399">
        <ele>602.9</ele>
        <time>2023-07-04T15:57:17Z</time>
      </trkpt>
      <trkpt lat="45.96661" lon="2.85398">
        <ele>602.9</ele>
        <time>2023-07-04T15:57:18Z</time>
      </trkpt>
      <trkpt lat="45.96662" lon="2.85397">
        <ele>602.8</ele>
        <time>2023-07-04T15:57:19Z</time>
      </trkpt>
      <trkpt lat="45.96663" lon="2.85396">
        <ele>602.8</ele>
        <time>2023-07-04T15:57:20Z</time>
      </trkpt>
      <trkpt lat="45.96664" lon="2.85396">
        <ele>602</ele>
        <time>2023-07-04T15:57:21Z</time>
      </trkpt>
      <trkpt lat="45.96664" lon="2.85396">
        <ele>602</ele>
        <time>2023-07-04T15:57:22Z</time>
      </trkpt>
      <trkpt lat="45.96665" lon="2.85397">
        <ele>601.9</ele>
        <time>2023-07-04T15:57:23Z</time>
      </trkpt>
      <trkpt lat="45.96666" lon="2.85397">
        <ele>601.9</ele>
        <time>2023-07-04T15:57:24Z</time>
      </trkpt>
      <trkpt lat="45.96666" lon="2.85397">
        <ele>601.8</ele>
        <time>2023-07-04T15:57:25Z</time>
      </trkpt>
      <trkpt lat="45.96667" lon="2.85397">
        <ele>601</ele>
        <time>2023-07-04T15:57:26Z</time>
      </trkpt>
      <trkpt lat="45.96667" lon="2.85396">
        <ele>601</ele>
        <time>2023-07-04T15:57:27Z</time>
      </trkpt>
      <trkpt lat="45.96666" lon="2.85395">
        <ele>601.7</ele>
        <time>2023-07-04T15:57:28Z</time>
      </trkpt>
      <trkpt lat="45.96665" lon="2.85395">
        <ele>601.6</ele>
        <time>2023-07-04T15:57:29Z</time>
      </trkpt>
      <trkpt lat="45.96665" lon="2.85395">
        <ele>601.6</ele>
        <time>2023-07-04T15:57:30Z</time>
      </trkpt>
      <trkpt lat="45.96665" lon="2.85395">
        <ele>601.5</ele>
        <time>2023-07-04T15:57:31Z</time>
      </trkpt>
      <trkpt lat="45.96666" lon="2.85395">
        <ele>601.5</ele>
        <time>2023-07-04T15:57:32Z</time>
      </trkpt>
      <trkpt lat="45.96666" lon="2.85395">
        <ele>601.4</ele>
        <time>2023-07-04T15:57:33Z</time>
      </trkpt>
      <trkpt lat="45.96667" lon="2.85395">
        <ele>600.7</ele>
        <time>2023-07-04T15:57:34Z</time>
      </trkpt>
      <trkpt lat="45.96667" lon="2.85395">
        <ele>600.6</ele>
        <time>2023-07-04T15:57:35Z</time>
      </trkpt>
      <trkpt lat="45.96668" lon="2.85395">
        <ele>600.6</ele>
        <time>2023-07-04T15:57:36Z</time>
      </trkpt>
      <trkpt lat="45.96669" lon="2.85395">
        <ele>600.5</ele>
        <time>2023-07-04T15:57:37Z</time>
      </trkpt>
      <trkpt lat="45.96669" lon="2.85395">
        <ele>600.5</ele>
        <time>2023-07-04T15:57:38Z</time>
      </trkpt>
      <trkpt lat="45.96669" lon="2.85395">
        <ele>600.4</ele>
        <time>2023-07-04T15:57:39Z</time>
      </trkpt>
      <trkpt lat="45.96668" lon="2.85395">
        <ele>600.4</ele>
        <time>2023-07-04T15:57:40Z</time>
      </trkpt>
      <trkpt lat="45.96668" lon="2.85394">
        <ele>600.3</ele>
        <time>2023-07-04T15:57:41Z</time>
      </trkpt>
      <trkpt lat="45.96667" lon="2.85394">
        <ele>600.2</ele>
        <time>2023-07-04T15:57:42Z</time>
      </trkpt>
      <trkpt lat="45.96666" lon="2.85393">
        <ele>600.9</ele>
        <time>2023-07-04T15:57:43Z</time>
      </trkpt>
      <trkpt lat="45.96664" lon="2.85393">
        <ele>600.9</ele>
        <time>2023-07-04T15:57:44Z</time>
      </trkpt>
      <trkpt lat="45.96663" lon="2.85394">
        <ele>601.6</ele>
        <time>2023-07-04T15:57:45Z</time>
      </trkpt>
      <trkpt lat="45.96661" lon="2.85394">
        <ele>601.5</ele>
        <time>2023-07-04T15:57:47Z</time>
      </trkpt>
      <trkpt lat="45.96661" lon="2.85394">
        <ele>601.5</ele>
        <time>2023-07-04T15:57:48Z</time>
      </trkpt>
      <trkpt lat="45.9666" lon="2.85394">
        <ele>602</ele>
        <time>2023-07-04T15:57:49Z</time>
      </trkpt>
      <trkpt lat="45.96659" lon="2.85394">
        <ele>602</ele>
        <time>2023-07-04T15:57:50Z</time>
      </trkpt>
      <trkpt lat="45.96659" lon="2.85394">
        <ele>601.9</ele>
        <time>2023-07-04T15:57:51Z</time>
      </trkpt>
      <trkpt lat="45.9666" lon="2.85394">
        <ele>601.9</ele>
        <time>2023-07-04T15:57:52Z</time>
      </trkpt>
      <trkpt lat="45.96661" lon="2.85395">
        <ele>601.2</ele>
        <time>2023-07-04T15:57:53Z</time>
      </trkpt>
      <trkpt lat="45.96661" lon="2.85397">
        <ele>601.1</ele>
        <time>2023-07-04T15:57:55Z</time>
      </trkpt>
      <trkpt lat="45.96661" lon="2.85398">
        <ele>601.1</ele>
        <time>2023-07-04T15:57:56Z</time>
      </trkpt>
      <trkpt lat="45.96661" lon="2.85399">
        <ele>601</ele>
        <time>2023-07-04T15:57:57Z</time>
      </trkpt>
      <trkpt lat="45.9666" lon="2.85398">
        <ele>601.6</ele>
        <time>2023-07-04T15:57:58Z</time>
      </trkpt>
      <trkpt lat="45.9666" lon="2.85397">
        <ele>601.6</ele>
        <time>2023-07-04T15:57:59Z</time>
      </trkpt>
      <trkpt lat="45.9666" lon="2.85396">
        <ele>600.9</ele>
        <time>2023-07-04T15:58:00Z</time>
      </trkpt>
      <trkpt lat="45.96661" lon="2.85396">
        <ele>600.8</ele>
        <time>2023-07-04T15:58:01Z</time>
      </trkpt>
      <trkpt lat="45.96662" lon="2.85397">
        <ele>600.8</ele>
        <time>2023-07-04T15:58:02Z</time>
      </trkpt>
      <trkpt lat="45.96663" lon="2.85398">
        <ele>600.7</ele>
        <time>2023-07-04T15:58:03Z</time>
      </trkpt>
      <trkpt lat="45.96663" lon="2.854">
        <ele>600.7</ele>
        <time>2023-07-04T15:58:04Z</time>
      </trkpt>
      <trkpt lat="45.96664" lon="2.85401">
        <ele>599.9</ele>
        <time>2023-07-04T15:58:05Z</time>
      </trkpt>
      <trkpt lat="45.96664" lon="2.85402">
        <ele>599.9</ele>
        <time>2023-07-04T15:58:06Z</time>
      </trkpt>
      <trkpt lat="45.96665" lon="2.85402">
        <ele>599.8</ele>
        <time>2023-07-04T15:58:07Z</time>
      </trkpt>
      <trkpt lat="45.96666" lon="2.85402">
        <ele>599.8</ele>
        <time>2023-07-04T15:58:08Z</time>
      </trkpt>
      <trkpt lat="45.96666" lon="2.85402">
        <ele>599.7</ele>
        <time>2023-07-04T15:58:09Z</time>
      </trkpt>
      <trkpt lat="45.96666" lon="2.85402">
        <ele>599.7</ele>
        <time>2023-07-04T15:58:10Z</time>
      </trkpt>
      <trkpt lat="45.96666" lon="2.854">
        <ele>598.9</ele>
        <time>2023-07-04T15:58:11Z</time>
      </trkpt>
      <trkpt lat="45.96667" lon="2.85399">
        <ele>598.8</ele>
        <time>2023-07-04T15:58:12Z</time>
      </trkpt>
      <trkpt lat="45.96667" lon="2.85398">
        <ele>598.8</ele>
        <time>2023-07-04T15:58:13Z</time>
      </trkpt>
      <trkpt lat="45.96667" lon="2.85397">
        <ele>598.7</ele>
        <time>2023-07-04T15:58:14Z</time>
      </trkpt>
      <trkpt lat="45.96668" lon="2.85396">
        <ele>598.7</ele>
        <time>2023-07-04T15:58:15Z</time>
      </trkpt>
      <trkpt lat="45.96668" lon="2.85396">
        <ele>598.6</ele>
        <time>2023-07-04T15:58:16Z</time>
      </trkpt>
      <trkpt lat="45.96669" lon="2.85395">
        <ele>598.6</ele>
        <time>2023-07-04T15:58:17Z</time>
      </trkpt>
      <trkpt lat="45.96669" lon="2.85396">
        <ele>598.5</ele>
        <time>2023-07-04T15:58:18Z</time>
      </trkpt>
      <trkpt lat="45.96669" lon="2.85396">
        <ele>598.5</ele>
        <time>2023-07-04T15:58:19Z</time>
      </trkpt>
      <trkpt lat="45.96669" lon="2.85397">
        <ele>598.4</ele>
        <time>2023-07-04T15:58:20Z</time>
      </trkpt>
      <trkpt lat="45.96669" lon="2.85397">
        <ele>598.4</ele>
        <time>2023-07-04T15:58:21Z</time>
      </trkpt>
      <trkpt lat="45.96668" lon="2.85398">
        <ele>598.3</ele>
        <time>2023-07-04T15:58:22Z</time>
      </trkpt>
      <trkpt lat="45.96667" lon="2.85399">
        <ele>598.3</ele>
        <time>2023-07-04T15:58:23Z</time>
      </trkpt>
      <trkpt lat="45.96667" lon="2.854">
        <ele>598.2</ele>
        <time>2023-07-04T15:58:24Z</time>
      </trkpt>
      <trkpt lat="45.96666" lon="2.85401">
        <ele>598.9</ele>
        <time>2023-07-04T15:58:25Z</time>
      </trkpt>
      <trkpt lat="45.96665" lon="2.85401">
        <ele>598.9</ele>
        <time>2023-07-04T15:58:26Z</time>
      </trkpt>
      <trkpt lat="45.96664" lon="2.854">
        <ele>598.8</ele>
        <time>2023-07-04T15:58:27Z</time>
      </trkpt>
      <trkpt lat="45.96664" lon="2.85399">
        <ele>598.7</ele>
        <time>2023-07-04T15:58:28Z</time>
      </trkpt>
      <trkpt lat="45.96664" lon="2.85398">
        <ele>598.7</ele>
        <time>2023-07-04T15:58:29Z</time>
      </trkpt>
      <trkpt lat="45.96663" lon="2.85398">
        <ele>599.4</ele>
        <time>2023-07-04T15:58:30Z</time>
      </trkpt>
      <trkpt lat="45.96663" lon="2.85398">
        <ele>599.3</ele>
        <time>2023-07-04T15:58:31Z</time>
      </trkpt>
      <trkpt lat="45.96662" lon="2.85398">
        <ele>599.3</ele>
        <time>2023-07-04T15:58:32Z</time>
      </trkpt>
      <trkpt lat="45.96662" lon="2.85398">
        <ele>599.2</ele>
        <time>2023-07-04T15:58:33Z</time>
      </trkpt>
      <trkpt lat="45.96661" lon="2.85399">
        <ele>599.1</ele>
        <time>2023-07-04T15:58:34Z</time>
      </trkpt>
      <trkpt lat="45.96659" lon="2.85399">
        <ele>599.7</ele>
        <time>2023-07-04T15:58:35Z</time>
      </trkpt>
      <trkpt lat="45.96658" lon="2.85397">
        <ele>599.7</ele>
        <time>2023-07-04T15:58:36Z</time>
      </trkpt>
      <trkpt lat="45.96655" lon="2.85394">
        <ele>600.2</ele>
        <time>2023-07-04T15:58:37Z</time>
      </trkpt>
      <trkpt lat="45.96654" lon="2.85393">
        <ele>600.7</ele>
        <time>2023-07-04T15:58:38Z</time>
      </trkpt>
      <trkpt lat="45.96651" lon="2.85392">
        <ele>601.1</ele>
        <time>2023-07-04T15:58:39Z</time>
      </trkpt>
      <trkpt lat="45.9665" lon="2.85392">
        <ele>601.1</ele>
        <time>2023-07-04T15:58:40Z</time>
      </trkpt>
      <trkpt lat="45.96647" lon="2.85391">
        <ele>601.6</ele>
        <time>2023-07-04T15:58:41Z</time>
      </trkpt>
      <trkpt lat="45.96644" lon="2.85391">
        <ele>602.1</ele>
        <time>2023-07-04T15:58:42Z</time>
      </trkpt>
      <trkpt lat="45.96641" lon="2.8539">
        <ele>602.9</ele>
        <time>2023-07-04T15:58:43Z</time>
      </trkpt>
      <trkpt lat="45.96639" lon="2.85389">
        <ele>603.4</ele>
        <time>2023-07-04T15:58:44Z</time>
      </trkpt>
      <trkpt lat="45.96638" lon="2.85387">
        <ele>603.4</ele>
        <time>2023-07-04T15:58:45Z</time>
      </trkpt>
      <trkpt lat="45.96637" lon="2.85385">
        <ele>603.5</ele>
        <time>2023-07-04T15:58:46Z</time>
      </trkpt>
      <trkpt lat="45.96638" lon="2.85384">
        <ele>603.4</ele>
        <time>2023-07-04T15:58:47Z</time>
      </trkpt>
      <trkpt lat="45.96638" lon="2.85382">
        <ele>603.6</ele>
        <time>2023-07-04T15:58:48Z</time>
      </trkpt>
      <trkpt lat="45.96639" lon="2.8538">
        <ele>603.5</ele>
        <time>2023-07-04T15:58:49Z</time>
      </trkpt>
      <trkpt lat="45.9664" lon="2.85379">
        <ele>602.9</ele>
        <time>2023-07-04T15:58:50Z</time>
      </trkpt>
      <trkpt lat="45.96644" lon="2.8538">
        <ele>601.9</ele>
        <time>2023-07-04T15:58:51Z</time>
      </trkpt>
      <trkpt lat="45.96645" lon="2.8538">
        <ele>601.8</ele>
        <time>2023-07-04T15:58:52Z</time>
      </trkpt>
      <trkpt lat="45.96649" lon="2.85383">
        <ele>600.7</ele>
        <time>2023-07-04T15:58:53Z</time>
      </trkpt>
      <trkpt lat="45.9665" lon="2.85383">
        <ele>600.5</ele>
        <time>2023-07-04T15:58:54Z</time>
      </trkpt>
      <trkpt lat="45.96653" lon="2.85382">
        <ele>600.1</ele>
        <time>2023-07-04T15:58:55Z</time>
      </trkpt>
      <trkpt lat="45.96654" lon="2.85381">
        <ele>600.1</ele>
        <time>2023-07-04T15:58:56Z</time>
      </trkpt>
      <trkpt lat="45.96658" lon="2.8538">
        <ele>599</ele>
        <time>2023-07-04T15:58:57Z</time>
      </trkpt>
      <trkpt lat="45.96659" lon="2.85379">
        <ele>598.9</ele>
        <time>2023-07-04T15:58:58Z</time>
      </trkpt>
      <trkpt lat="45.96662" lon="2.85379">
        <ele>598.2</ele>
        <time>2023-07-04T15:58:59Z</time>
      </trkpt>
      <trkpt lat="45.96665" lon="2.85379">
        <ele>597.4</ele>
        <time>2023-07-04T15:59:00Z</time>
      </trkpt>
      <trkpt lat="45.96666" lon="2.85379">
        <ele>597.4</ele>
        <time>2023-07-04T15:59:01Z</time>
      </trkpt>
      <trkpt lat="45.96669" lon="2.85379">
        <ele>596.6</ele>
        <time>2023-07-04T15:59:02Z</time>
      </trkpt>
      <trkpt lat="45.9667" lon="2.85379">
        <ele>595.8</ele>
        <time>2023-07-04T15:59:03Z</time>
      </trkpt>
      <trkpt lat="45.96671" lon="2.85378">
        <ele>595.9</ele>
        <time>2023-07-04T15:59:04Z</time>
      </trkpt>
      <trkpt lat="45.96672" lon="2.85377">
        <ele>595.1</ele>
        <time>2023-07-04T15:59:05Z</time>
      </trkpt>
      <trkpt lat="45.96674" lon="2.85376">
        <ele>595.1</ele>
        <time>2023-07-04T15:59:06Z</time>
      </trkpt>
      <trkpt lat="45.96676" lon="2.85376">
        <ele>594.3</ele>
        <time>2023-07-04T15:59:07Z</time>
      </trkpt>
      <trkpt lat="45.96678" lon="2.85374">
        <ele>593.6</ele>
        <time>2023-07-04T15:59:08Z</time>
      </trkpt>
      <trkpt lat="45.9668" lon="2.85374">
        <ele>593.7</ele>
        <time>2023-07-04T15:59:09Z</time>
      </trkpt>
      <trkpt lat="45.96682" lon="2.85372">
        <ele>592.9</ele>
        <time>2023-07-04T15:59:11Z</time>
      </trkpt>
      <trkpt lat="45.96684" lon="2.85371">
        <ele>592.9</ele>
        <time>2023-07-04T15:59:12Z</time>
      </trkpt>
      <trkpt lat="45.96686" lon="2.85371">
        <ele>592</ele>
        <time>2023-07-04T15:59:13Z</time>
      </trkpt>
      <trkpt lat="45.96688" lon="2.8537">
        <ele>591.1</ele>
        <time>2023-07-04T15:59:14Z</time>
      </trkpt>
      <trkpt lat="45.96691" lon="2.85369">
        <ele>590.3</ele>
        <time>2023-07-04T15:59:15Z</time>
      </trkpt>
      <trkpt lat="45.96691" lon="2.85369">
        <ele>590.2</ele>
        <time>2023-07-04T15:59:16Z</time>
      </trkpt>
      <trkpt lat="45.96694" lon="2.85369">
        <ele>589.2</ele>
        <time>2023-07-04T15:59:17Z</time>
      </trkpt>
      <trkpt lat="45.96695" lon="2.85369">
        <ele>589.2</ele>
        <time>2023-07-04T15:59:18Z</time>
      </trkpt>
      <trkpt lat="45.96698" lon="2.8537">
        <ele>588</ele>
        <time>2023-07-04T15:59:19Z</time>
      </trkpt>
      <trkpt lat="45.96702" lon="2.8537">
        <ele>587.1</ele>
        <time>2023-07-04T15:59:21Z</time>
      </trkpt>
      <trkpt lat="45.96703" lon="2.8537">
        <ele>586.1</ele>
        <time>2023-07-04T15:59:22Z</time>
      </trkpt>
      <trkpt lat="45.96705" lon="2.8537">
        <ele>586.1</ele>
        <time>2023-07-04T15:59:23Z</time>
      </trkpt>
      <trkpt lat="45.96708" lon="2.8537">
        <ele>585.1</ele>
        <time>2023-07-04T15:59:24Z</time>
      </trkpt>
      <trkpt lat="45.96709" lon="2.8537">
        <ele>584.2</ele>
        <time>2023-07-04T15:59:25Z</time>
      </trkpt>
      <trkpt lat="45.96711" lon="2.85371">
        <ele>584.2</ele>
        <time>2023-07-04T15:59:26Z</time>
      </trkpt>
      <trkpt lat="45.96712" lon="2.8537">
        <ele>583.2</ele>
        <time>2023-07-04T15:59:27Z</time>
      </trkpt>
      <trkpt lat="45.96713" lon="2.8537">
        <ele>583.2</ele>
        <time>2023-07-04T15:59:28Z</time>
      </trkpt>
      <trkpt lat="45.96715" lon="2.85369">
        <ele>582.3</ele>
        <time>2023-07-04T15:59:29Z</time>
      </trkpt>
      <trkpt lat="45.96716" lon="2.85368">
        <ele>582.3</ele>
        <time>2023-07-04T15:59:30Z</time>
      </trkpt>
      <trkpt lat="45.9672" lon="2.85366">
        <ele>581.3</ele>
        <time>2023-07-04T15:59:31Z</time>
      </trkpt>
      <trkpt lat="45.96721" lon="2.85366">
        <ele>580.2</ele>
        <time>2023-07-04T15:59:32Z</time>
      </trkpt>
      <trkpt lat="45.96725" lon="2.85364">
        <ele>579.1</ele>
        <time>2023-07-04T15:59:33Z</time>
      </trkpt>
      <trkpt lat="45.96727" lon="2.85363">
        <ele>578</ele>
        <time>2023-07-04T15:59:34Z</time>
      </trkpt>
      <trkpt lat="45.9673" lon="2.8536">
        <ele>576.9</ele>
        <time>2023-07-04T15:59:35Z</time>
      </trkpt>
      <trkpt lat="45.96732" lon="2.85357">
        <ele>575.8</ele>
        <time>2023-07-04T15:59:36Z</time>
      </trkpt>
      <trkpt lat="45.96736" lon="2.85354">
        <ele>574.8</ele>
        <time>2023-07-04T15:59:37Z</time>
      </trkpt>
      <trkpt lat="45.96737" lon="2.85352">
        <ele>574.9</ele>
        <time>2023-07-04T15:59:38Z</time>
      </trkpt>
      <trkpt lat="45.96741" lon="2.85349">
        <ele>573.8</ele>
        <time>2023-07-04T15:59:39Z</time>
      </trkpt>
      <trkpt lat="45.96742" lon="2.85348">
        <ele>572.9</ele>
        <time>2023-07-04T15:59:40Z</time>
      </trkpt>
      <trkpt lat="45.96744" lon="2.85346">
        <ele>571.6</ele>
        <time>2023-07-04T15:59:41Z</time>
      </trkpt>
      <trkpt lat="45.96746" lon="2.85343">
        <ele>571.9</ele>
        <time>2023-07-04T15:59:42Z</time>
      </trkpt>
      <trkpt lat="45.96749" lon="2.85339">
        <ele>570.9</ele>
        <time>2023-07-04T15:59:43Z</time>
      </trkpt>
      <trkpt lat="45.96751" lon="2.85337">
        <ele>569.6</ele>
        <time>2023-07-04T15:59:44Z</time>
      </trkpt>
      <trkpt lat="45.96753" lon="2.85333">
        <ele>568.8</ele>
        <time>2023-07-04T15:59:45Z</time>
      </trkpt>
      <trkpt lat="45.96756" lon="2.8533">
        <ele>569.2</ele>
        <time>2023-07-04T15:59:46Z</time>
      </trkpt>
      <trkpt lat="45.96758" lon="2.85328">
        <ele>568</ele>
        <time>2023-07-04T15:59:47Z</time>
      </trkpt>
      <trkpt lat="45.9676" lon="2.85325">
        <ele>567.5</ele>
        <time>2023-07-04T15:59:48Z</time>
      </trkpt>
      <trkpt lat="45.96763" lon="2.85321">
        <ele>567</ele>
        <time>2023-07-04T15:59:49Z</time>
      </trkpt>
      <trkpt lat="45.96764" lon="2.8532">
        <ele>567</ele>
        <time>2023-07-04T15:59:50Z</time>
      </trkpt>
      <trkpt lat="45.96767" lon="2.85316">
        <ele>566.5</ele>
        <time>2023-07-04T15:59:51Z</time>
      </trkpt>
      <trkpt lat="45.96768" lon="2.85314">
        <ele>566.1</ele>
        <time>2023-07-04T15:59:52Z</time>
      </trkpt>
      <trkpt lat="45.96769" lon="2.85312">
        <ele>566.1</ele>
        <time>2023-07-04T15:59:53Z</time>
      </trkpt>
      <trkpt lat="45.96772" lon="2.85309">
        <ele>565.7</ele>
        <time>2023-07-04T15:59:55Z</time>
      </trkpt>
      <trkpt lat="45.96773" lon="2.85309">
        <ele>565.6</ele>
        <time>2023-07-04T15:59:56Z</time>
      </trkpt>
      <trkpt lat="45.96773" lon="2.85308">
        <ele>565.6</ele>
        <time>2023-07-04T15:59:57Z</time>
      </trkpt>
      <trkpt lat="45.96773" lon="2.85309">
        <ele>565.5</ele>
        <time>2023-07-04T15:59:58Z</time>
      </trkpt>
      <trkpt lat="45.96771" lon="2.85309">
        <ele>565.5</ele>
        <time>2023-07-04T15:59:59Z</time>
      </trkpt>
      <trkpt lat="45.96771" lon="2.85308">
        <ele>565.4</ele>
        <time>2023-07-04T16:00:01Z</time>
      </trkpt>
      <trkpt lat="45.96773" lon="2.85307">
        <ele>565.4</ele>
        <time>2023-07-04T16:00:02Z</time>
      </trkpt>
      <trkpt lat="45.96774" lon="2.85307">
        <ele>564.2</ele>
        <time>2023-07-04T16:00:04Z</time>
      </trkpt>
      <trkpt lat="45.96775" lon="2.85307">
        <ele>564.1</ele>
        <time>2023-07-04T16:00:05Z</time>
      </trkpt>
      <trkpt lat="45.96778" lon="2.85305">
        <ele>563.7</ele>
        <time>2023-07-04T16:00:06Z</time>
      </trkpt>
      <trkpt lat="45.9678" lon="2.85305">
        <ele>563.7</ele>
        <time>2023-07-04T16:00:07Z</time>
      </trkpt>
      <trkpt lat="45.96783" lon="2.85303">
        <ele>561.6</ele>
        <time>2023-07-04T16:00:08Z</time>
      </trkpt>
      <trkpt lat="45.96785" lon="2.85303">
        <ele>561.6</ele>
        <time>2023-07-04T16:00:09Z</time>
      </trkpt>
      <trkpt lat="45.96788" lon="2.85303">
        <ele>560.6</ele>
        <time>2023-07-04T16:00:10Z</time>
      </trkpt>
      <trkpt lat="45.96789" lon="2.85303">
        <ele>559.7</ele>
        <time>2023-07-04T16:00:11Z</time>
      </trkpt>
      <trkpt lat="45.96792" lon="2.85304">
        <ele>558.8</ele>
        <time>2023-07-04T16:00:12Z</time>
      </trkpt>
      <trkpt lat="45.96794" lon="2.85304">
        <ele>558.8</ele>
        <time>2023-07-04T16:00:13Z</time>
      </trkpt>
      <trkpt lat="45.96795" lon="2.85304">
        <ele>557.9</ele>
        <time>2023-07-04T16:00:14Z</time>
      </trkpt>
      <trkpt lat="45.96797" lon="2.85304">
        <ele>557.9</ele>
        <time>2023-07-04T16:00:15Z</time>
      </trkpt>
      <trkpt lat="45.96799" lon="2.85304">
        <ele>557.1</ele>
        <time>2023-07-04T16:00:16Z</time>
      </trkpt>
      <trkpt lat="45.96801" lon="2.85303">
        <ele>556.2</ele>
        <time>2023-07-04T16:00:17Z</time>
      </trkpt>
      <trkpt lat="45.96803" lon="2.85302">
        <ele>556.2</ele>
        <time>2023-07-04T16:00:18Z</time>
      </trkpt>
      <trkpt lat="45.96807" lon="2.85302">
        <ele>554.6</ele>
        <time>2023-07-04T16:00:19Z</time>
      </trkpt>
      <trkpt lat="45.96808" lon="2.85302">
        <ele>554.5</ele>
        <time>2023-07-04T16:00:20Z</time>
      </trkpt>
      <trkpt lat="45.96811" lon="2.85302">
        <ele>553.7</ele>
        <time>2023-07-04T16:00:21Z</time>
      </trkpt>
      <trkpt lat="45.96813" lon="2.85301">
        <ele>553</ele>
        <time>2023-07-04T16:00:22Z</time>
      </trkpt>
      <trkpt lat="45.96816" lon="2.853">
        <ele>552.8</ele>
        <time>2023-07-04T16:00:23Z</time>
      </trkpt>
      <trkpt lat="45.96817" lon="2.853">
        <ele>552.7</ele>
        <time>2023-07-04T16:00:24Z</time>
      </trkpt>
      <trkpt lat="45.96821" lon="2.85299">
        <ele>552.1</ele>
        <time>2023-07-04T16:00:25Z</time>
      </trkpt>
      <trkpt lat="45.96822" lon="2.85299">
        <ele>551.5</ele>
        <time>2023-07-04T16:00:26Z</time>
      </trkpt>
      <trkpt lat="45.96825" lon="2.853">
        <ele>550.8</ele>
        <time>2023-07-04T16:00:27Z</time>
      </trkpt>
      <trkpt lat="45.96826" lon="2.853">
        <ele>550.8</ele>
        <time>2023-07-04T16:00:28Z</time>
      </trkpt>
      <trkpt lat="45.96828" lon="2.85301">
        <ele>550.1</ele>
        <time>2023-07-04T16:00:29Z</time>
      </trkpt>
      <trkpt lat="45.96829" lon="2.85301">
        <ele>550</ele>
        <time>2023-07-04T16:00:30Z</time>
      </trkpt>
      <trkpt lat="45.96832" lon="2.85301">
        <ele>549.2</ele>
        <time>2023-07-04T16:00:31Z</time>
      </trkpt>
      <trkpt lat="45.96833" lon="2.85301">
        <ele>549.2</ele>
        <time>2023-07-04T16:00:32Z</time>
      </trkpt>
      <trkpt lat="45.96837" lon="2.853">
        <ele>547.6</ele>
        <time>2023-07-04T16:00:33Z</time>
      </trkpt>
      <trkpt lat="45.96837" lon="2.853">
        <ele>547.6</ele>
        <time>2023-07-04T16:00:34Z</time>
      </trkpt>
      <trkpt lat="45.96839" lon="2.853">
        <ele>547.5</ele>
        <time>2023-07-04T16:00:35Z</time>
      </trkpt>
      <trkpt lat="45.9684" lon="2.85301">
        <ele>546.9</ele>
        <time>2023-07-04T16:00:36Z</time>
      </trkpt>
      <trkpt lat="45.96842" lon="2.85303">
        <ele>546.5</ele>
        <time>2023-07-04T16:00:37Z</time>
      </trkpt>
      <trkpt lat="45.96843" lon="2.85305">
        <ele>545.9</ele>
        <time>2023-07-04T16:00:38Z</time>
      </trkpt>
      <trkpt lat="45.96844" lon="2.85307">
        <ele>545.6</ele>
        <time>2023-07-04T16:00:39Z</time>
      </trkpt>
      <trkpt lat="45.96844" lon="2.85309">
        <ele>545.6</ele>
        <time>2023-07-04T16:00:40Z</time>
      </trkpt>
      <trkpt lat="45.96844" lon="2.85313">
        <ele>545.3</ele>
        <time>2023-07-04T16:00:41Z</time>
      </trkpt>
      <trkpt lat="45.96844" lon="2.85315">
        <ele>545.1</ele>
        <time>2023-07-04T16:00:42Z</time>
      </trkpt>
      <trkpt lat="45.96844" lon="2.85316">
        <ele>545.1</ele>
        <time>2023-07-04T16:00:43Z</time>
      </trkpt>
      <trkpt lat="45.96844" lon="2.85321">
        <ele>544.9</ele>
        <time>2023-07-04T16:00:44Z</time>
      </trkpt>
      <trkpt lat="45.96844" lon="2.85322">
        <ele>544.8</ele>
        <time>2023-07-04T16:00:45Z</time>
      </trkpt>
      <trkpt lat="45.96843" lon="2.85326">
        <ele>544.7</ele>
        <time>2023-07-04T16:00:46Z</time>
      </trkpt>
      <trkpt lat="45.96843" lon="2.85328">
        <ele>544.7</ele>
        <time>2023-07-04T16:00:47Z</time>
      </trkpt>
      <trkpt lat="45.96842" lon="2.85331">
        <ele>545.1</ele>
        <time>2023-07-04T16:00:48Z</time>
      </trkpt>
      <trkpt lat="45.96842" lon="2.85332">
        <ele>545</ele>
        <time>2023-07-04T16:00:49Z</time>
      </trkpt>
      <trkpt lat="45.96841" lon="2.85335">
        <ele>544.9</ele>
        <time>2023-07-04T16:00:50Z</time>
      </trkpt>
      <trkpt lat="45.96842" lon="2.85337">
        <ele>544.7</ele>
        <time>2023-07-04T16:00:51Z</time>
      </trkpt>
      <trkpt lat="45.96843" lon="2.85339">
        <ele>544.6</ele>
        <time>2023-07-04T16:00:52Z</time>
      </trkpt>
      <trkpt lat="45.96845" lon="2.85339">
        <ele>544.5</ele>
        <time>2023-07-04T16:00:53Z</time>
      </trkpt>
      <trkpt lat="45.96846" lon="2.85338">
        <ele>544.4</ele>
        <time>2023-07-04T16:00:54Z</time>
      </trkpt>
      <trkpt lat="45.96848" lon="2.85337">
        <ele>544.2</ele>
        <time>2023-07-04T16:00:55Z</time>
      </trkpt>
      <trkpt lat="45.96851" lon="2.85337">
        <ele>543.5</ele>
        <time>2023-07-04T16:00:56Z</time>
      </trkpt>
      <trkpt lat="45.96852" lon="2.85337">
        <ele>543.3</ele>
        <time>2023-07-04T16:00:57Z</time>
      </trkpt>
      <trkpt lat="45.96855" lon="2.85334">
        <ele>542.8</ele>
        <time>2023-07-04T16:00:58Z</time>
      </trkpt>
      <trkpt lat="45.96856" lon="2.85332">
        <ele>542.6</ele>
        <time>2023-07-04T16:00:59Z</time>
      </trkpt>
      <trkpt lat="45.96857" lon="2.85331">
        <ele>542.4</ele>
        <time>2023-07-04T16:01:00Z</time>
      </trkpt>
      <trkpt lat="45.96858" lon="2.8533">
        <ele>542.2</ele>
        <time>2023-07-04T16:01:01Z</time>
      </trkpt>
      <trkpt lat="45.9686" lon="2.85328">
        <ele>541.8</ele>
        <time>2023-07-04T16:01:02Z</time>
      </trkpt>
      <trkpt lat="45.96861" lon="2.85328">
        <ele>541.7</ele>
        <time>2023-07-04T16:01:03Z</time>
      </trkpt>
      <trkpt lat="45.96863" lon="2.85327">
        <ele>541.5</ele>
        <time>2023-07-04T16:01:04Z</time>
      </trkpt>
      <trkpt lat="45.96865" lon="2.85327">
        <ele>541.3</ele>
        <time>2023-07-04T16:01:05Z</time>
      </trkpt>
      <trkpt lat="45.96868" lon="2.85327">
        <ele>541</ele>
        <time>2023-07-04T16:01:06Z</time>
      </trkpt>
      <trkpt lat="45.9687" lon="2.85326">
        <ele>540.6</ele>
        <time>2023-07-04T16:01:07Z</time>
      </trkpt>
      <trkpt lat="45.96871" lon="2.85325">
        <ele>540.5</ele>
        <time>2023-07-04T16:01:08Z</time>
      </trkpt>
      <trkpt lat="45.96875" lon="2.85324">
        <ele>540.2</ele>
        <time>2023-07-04T16:01:09Z</time>
      </trkpt>
      <trkpt lat="45.96876" lon="2.85324">
        <ele>540.1</ele>
        <time>2023-07-04T16:01:10Z</time>
      </trkpt>
      <trkpt lat="45.96879" lon="2.85323">
        <ele>539.8</ele>
        <time>2023-07-04T16:01:11Z</time>
      </trkpt>
      <trkpt lat="45.96882" lon="2.85323">
        <ele>539.6</ele>
        <time>2023-07-04T16:01:12Z</time>
      </trkpt>
      <trkpt lat="45.96885" lon="2.85323">
        <ele>539.4</ele>
        <time>2023-07-04T16:01:13Z</time>
      </trkpt>
      <trkpt lat="45.96888" lon="2.85322">
        <ele>539.2</ele>
        <time>2023-07-04T16:01:14Z</time>
      </trkpt>
      <trkpt lat="45.96892" lon="2.85321">
        <ele>539</ele>
        <time>2023-07-04T16:01:15Z</time>
      </trkpt>
      <trkpt lat="45.96895" lon="2.8532">
        <ele>538.8</ele>
        <time>2023-07-04T16:01:16Z</time>
      </trkpt>
      <trkpt lat="45.96898" lon="2.8532">
        <ele>538.6</ele>
        <time>2023-07-04T16:01:17Z</time>
      </trkpt>
      <trkpt lat="45.96902" lon="2.8532">
        <ele>538.4</ele>
        <time>2023-07-04T16:01:18Z</time>
      </trkpt>
      <trkpt lat="45.96904" lon="2.8532">
        <ele>538.3</ele>
        <time>2023-07-04T16:01:19Z</time>
      </trkpt>
      <trkpt lat="45.96907" lon="2.85321">
        <ele>538.1</ele>
        <time>2023-07-04T16:01:20Z</time>
      </trkpt>
      <trkpt lat="45.9691" lon="2.85322">
        <ele>537.9</ele>
        <time>2023-07-04T16:01:21Z</time>
      </trkpt>
      <trkpt lat="45.96914" lon="2.85324">
        <ele>537.6</ele>
        <time>2023-07-04T16:01:22Z</time>
      </trkpt>
      <trkpt lat="45.96918" lon="2.85324">
        <ele>537.3</ele>
        <time>2023-07-04T16:01:23Z</time>
      </trkpt>
      <trkpt lat="45.96921" lon="2.85325">
        <ele>537.1</ele>
        <time>2023-07-04T16:01:24Z</time>
      </trkpt>
      <trkpt lat="45.96925" lon="2.85325">
        <ele>536.8</ele>
        <time>2023-07-04T16:01:25Z</time>
      </trkpt>
      <trkpt lat="45.96929" lon="2.85326">
        <ele>536.6</ele>
        <time>2023-07-04T16:01:26Z</time>
      </trkpt>
      <trkpt lat="45.9693" lon="2.85327">
        <ele>536.5</ele>
        <time>2023-07-04T16:01:27Z</time>
      </trkpt>
      <trkpt lat="45.96933" lon="2.85327">
        <ele>536.3</ele>
        <time>2023-07-04T16:01:28Z</time>
      </trkpt>
      <trkpt lat="45.96934" lon="2.85327">
        <ele>536.2</ele>
        <time>2023-07-04T16:01:29Z</time>
      </trkpt>
      <trkpt lat="45.96935" lon="2.85328">
        <ele>536.1</ele>
        <time>2023-07-04T16:01:30Z</time>
      </trkpt>
      <trkpt lat="45.96936" lon="2.85328">
        <ele>536.1</ele>
        <time>2023-07-04T16:01:32Z</time>
      </trkpt>
      <trkpt lat="45.96936" lon="2.85328">
        <ele>536</ele>
        <time>2023-07-04T16:01:33Z</time>
      </trkpt>
      <trkpt lat="45.96937" lon="2.85329">
        <ele>536</ele>
        <time>2023-07-04T16:01:34Z</time>
      </trkpt>
      <trkpt lat="45.96937" lon="2.85329">
        <ele>535.9</ele>
        <time>2023-07-04T16:01:35Z</time>
      </trkpt>
      <trkpt lat="45.96937" lon="2.8533">
        <ele>535.9</ele>
        <time>2023-07-04T16:01:36Z</time>
      </trkpt>
      <trkpt lat="45.96938" lon="2.8533">
        <ele>535.9</ele>
        <time>2023-07-04T16:01:37Z</time>
      </trkpt>
      <trkpt lat="45.96938" lon="2.8533">
        <ele>535.8</ele>
        <time>2023-07-04T16:01:38Z</time>
      </trkpt>
      <trkpt lat="45.96939" lon="2.85331">
        <ele>535.8</ele>
        <time>2023-07-04T16:01:39Z</time>
      </trkpt>
      <trkpt lat="45.96939" lon="2.85331">
        <ele>535.8</ele>
        <time>2023-07-04T16:01:40Z</time>
      </trkpt>
      <trkpt lat="45.96939" lon="2.85332">
        <ele>535.7</ele>
        <time>2023-07-04T16:01:41Z</time>
      </trkpt>
      <trkpt lat="45.96942" lon="2.85334">
        <ele>535.5</ele>
        <time>2023-07-04T16:01:42Z</time>
      </trkpt>
      <trkpt lat="45.96943" lon="2.85335">
        <ele>535.4</ele>
        <time>2023-07-04T16:01:43Z</time>
      </trkpt>
      <trkpt lat="45.96946" lon="2.85337">
        <ele>535.2</ele>
        <time>2023-07-04T16:01:44Z</time>
      </trkpt>
      <trkpt lat="45.96949" lon="2.85339">
        <ele>534.8</ele>
        <time>2023-07-04T16:01:45Z</time>
      </trkpt>
      <trkpt lat="45.96952" lon="2.85342">
        <ele>534.5</ele>
        <time>2023-07-04T16:01:46Z</time>
      </trkpt>
      <trkpt lat="45.96955" lon="2.85344">
        <ele>534.2</ele>
        <time>2023-07-04T16:01:47Z</time>
      </trkpt>
      <trkpt lat="45.9696" lon="2.85345">
        <ele>533.7</ele>
        <time>2023-07-04T16:01:48Z</time>
      </trkpt>
      <trkpt lat="45.96964" lon="2.85346">
        <ele>533.4</ele>
        <time>2023-07-04T16:01:49Z</time>
      </trkpt>
      <trkpt lat="45.96967" lon="2.85346">
        <ele>533.1</ele>
        <time>2023-07-04T16:01:50Z</time>
      </trkpt>
      <trkpt lat="45.96971" lon="2.85346">
        <ele>532.8</ele>
        <time>2023-07-04T16:01:51Z</time>
      </trkpt>
      <trkpt lat="45.96976" lon="2.85347">
        <ele>532.4</ele>
        <time>2023-07-04T16:01:52Z</time>
      </trkpt>
      <trkpt lat="45.9698" lon="2.85346">
        <ele>532.1</ele>
        <time>2023-07-04T16:01:53Z</time>
      </trkpt>
      <trkpt lat="45.96982" lon="2.85346">
        <ele>532</ele>
        <time>2023-07-04T16:01:54Z</time>
      </trkpt>
      <trkpt lat="45.96987" lon="2.85346">
        <ele>531.8</ele>
        <time>2023-07-04T16:01:56Z</time>
      </trkpt>
      <trkpt lat="45.96992" lon="2.85346">
        <ele>531.6</ele>
        <time>2023-07-04T16:01:57Z</time>
      </trkpt>
      <trkpt lat="45.96995" lon="2.85346">
        <ele>531.4</ele>
        <time>2023-07-04T16:01:58Z</time>
      </trkpt>
      <trkpt lat="45.96999" lon="2.85347">
        <ele>531.3</ele>
        <time>2023-07-04T16:01:59Z</time>
      </trkpt>
      <trkpt lat="45.97001" lon="2.85348">
        <ele>531.2</ele>
        <time>2023-07-04T16:02:00Z</time>
      </trkpt>
      <trkpt lat="45.97004" lon="2.85352">
        <ele>531.1</ele>
        <time>2023-07-04T16:02:01Z</time>
      </trkpt>
      <trkpt lat="45.97007" lon="2.85355">
        <ele>531</ele>
        <time>2023-07-04T16:02:02Z</time>
      </trkpt>
      <trkpt lat="45.9701" lon="2.85358">
        <ele>530.9</ele>
        <time>2023-07-04T16:02:03Z</time>
      </trkpt>
      <trkpt lat="45.97013" lon="2.8536">
        <ele>530.8</ele>
        <time>2023-07-04T16:02:04Z</time>
      </trkpt>
      <trkpt lat="45.97015" lon="2.85362">
        <ele>530.7</ele>
        <time>2023-07-04T16:02:05Z</time>
      </trkpt>
      <trkpt lat="45.97017" lon="2.85366">
        <ele>530.6</ele>
        <time>2023-07-04T16:02:06Z</time>
      </trkpt>
      <trkpt lat="45.97018" lon="2.85371">
        <ele>530.5</ele>
        <time>2023-07-04T16:02:07Z</time>
      </trkpt>
      <trkpt lat="45.97019" lon="2.85373">
        <ele>530.5</ele>
        <time>2023-07-04T16:02:08Z</time>
      </trkpt>
      <trkpt lat="45.97019" lon="2.85377">
        <ele>530.4</ele>
        <time>2023-07-04T16:02:09Z</time>
      </trkpt>
      <trkpt lat="45.97019" lon="2.85381">
        <ele>530.4</ele>
        <time>2023-07-04T16:02:10Z</time>
      </trkpt>
      <trkpt lat="45.9702" lon="2.85386">
        <ele>530.3</ele>
        <time>2023-07-04T16:02:11Z</time>
      </trkpt>
      <trkpt lat="45.9702" lon="2.8539">
        <ele>530.2</ele>
        <time>2023-07-04T16:02:12Z</time>
      </trkpt>
      <trkpt lat="45.97021" lon="2.85395">
        <ele>530.1</ele>
        <time>2023-07-04T16:02:13Z</time>
      </trkpt>
      <trkpt lat="45.97022" lon="2.85398">
        <ele>530</ele>
        <time>2023-07-04T16:02:14Z</time>
      </trkpt>
      <trkpt lat="45.97024" lon="2.85403">
        <ele>529.9</ele>
        <time>2023-07-04T16:02:15Z</time>
      </trkpt>
      <trkpt lat="45.97024" lon="2.85405">
        <ele>529.9</ele>
        <time>2023-07-04T16:02:16Z</time>
      </trkpt>
      <trkpt lat="45.97026" lon="2.85409">
        <ele>529.8</ele>
        <time>2023-07-04T16:02:17Z</time>
      </trkpt>
      <trkpt lat="45.97028" lon="2.85413">
        <ele>529.6</ele>
        <time>2023-07-04T16:02:19Z</time>
      </trkpt>
      <trkpt lat="45.97031" lon="2.85418">
        <ele>529.5</ele>
        <time>2023-07-04T16:02:20Z</time>
      </trkpt>
      <trkpt lat="45.97032" lon="2.85423">
        <ele>529.4</ele>
        <time>2023-07-04T16:02:21Z</time>
      </trkpt>
      <trkpt lat="45.97032" lon="2.85427">
        <ele>529.3</ele>
        <time>2023-07-04T16:02:22Z</time>
      </trkpt>
      <trkpt lat="45.97032" lon="2.85433">
        <ele>529.2</ele>
        <time>2023-07-04T16:02:23Z</time>
      </trkpt>
      <trkpt lat="45.97033" lon="2.85438">
        <ele>529.1</ele>
        <time>2023-07-04T16:02:24Z</time>
      </trkpt>
      <trkpt lat="45.97034" lon="2.85443">
        <ele>529</ele>
        <time>2023-07-04T16:02:25Z</time>
      </trkpt>
      <trkpt lat="45.97035" lon="2.85449">
        <ele>528.9</ele>
        <time>2023-07-04T16:02:26Z</time>
      </trkpt>
      <trkpt lat="45.97035" lon="2.85454">
        <ele>528.8</ele>
        <time>2023-07-04T16:02:27Z</time>
      </trkpt>
      <trkpt lat="45.97036" lon="2.85458">
        <ele>528.8</ele>
        <time>2023-07-04T16:02:28Z</time>
      </trkpt>
      <trkpt lat="45.97037" lon="2.85464">
        <ele>528.7</ele>
        <time>2023-07-04T16:02:29Z</time>
      </trkpt>
      <trkpt lat="45.97038" lon="2.85468">
        <ele>528.6</ele>
        <time>2023-07-04T16:02:30Z</time>
      </trkpt>
      <trkpt lat="45.97039" lon="2.85473">
        <ele>528.5</ele>
        <time>2023-07-04T16:02:31Z</time>
      </trkpt>
      <trkpt lat="45.9704" lon="2.85478">
        <ele>528.4</ele>
        <time>2023-07-04T16:02:32Z</time>
      </trkpt>
      <trkpt lat="45.9704" lon="2.8548">
        <ele>528.4</ele>
        <time>2023-07-04T16:02:33Z</time>
      </trkpt>
      <trkpt lat="45.97042" lon="2.85481">
        <ele>528.3</ele>
        <time>2023-07-04T16:02:34Z</time>
      </trkpt>
      <trkpt lat="45.97042" lon="2.85483">
        <ele>528.3</ele>
        <time>2023-07-04T16:02:35Z</time>
      </trkpt>
      <trkpt lat="45.97044" lon="2.85486">
        <ele>528.2</ele>
        <time>2023-07-04T16:02:36Z</time>
      </trkpt>
      <trkpt lat="45.97045" lon="2.85487">
        <ele>528.2</ele>
        <time>2023-07-04T16:02:37Z</time>
      </trkpt>
      <trkpt lat="45.97047" lon="2.8549">
        <ele>528.1</ele>
        <time>2023-07-04T16:02:38Z</time>
      </trkpt>
      <trkpt lat="45.97048" lon="2.85491">
        <ele>528</ele>
        <time>2023-07-04T16:02:39Z</time>
      </trkpt>
      <trkpt lat="45.9705" lon="2.85495">
        <ele>527.9</ele>
        <time>2023-07-04T16:02:40Z</time>
      </trkpt>
      <trkpt lat="45.97051" lon="2.85496">
        <ele>527.9</ele>
        <time>2023-07-04T16:02:41Z</time>
      </trkpt>
      <trkpt lat="45.97053" lon="2.85498">
        <ele>527.7</ele>
        <time>2023-07-04T16:02:42Z</time>
      </trkpt>
      <trkpt lat="45.97056" lon="2.85501">
        <ele>527.6</ele>
        <time>2023-07-04T16:02:43Z</time>
      </trkpt>
      <trkpt lat="45.97058" lon="2.85504">
        <ele>527.4</ele>
        <time>2023-07-04T16:02:44Z</time>
      </trkpt>
      <trkpt lat="45.9706" lon="2.85507">
        <ele>527.3</ele>
        <time>2023-07-04T16:02:45Z</time>
      </trkpt>
      <trkpt lat="45.97063" lon="2.85512">
        <ele>527.1</ele>
        <time>2023-07-04T16:02:46Z</time>
      </trkpt>
      <trkpt lat="45.97063" lon="2.85514">
        <ele>527</ele>
        <time>2023-07-04T16:02:47Z</time>
      </trkpt>
      <trkpt lat="45.97065" lon="2.8552">
        <ele>526.7</ele>
        <time>2023-07-04T16:02:48Z</time>
      </trkpt>
      <trkpt lat="45.97065" lon="2.85523">
        <ele>526.6</ele>
        <time>2023-07-04T16:02:49Z</time>
      </trkpt>
      <trkpt lat="45.97066" lon="2.85528">
        <ele>526.3</ele>
        <time>2023-07-04T16:02:50Z</time>
      </trkpt>
      <trkpt lat="45.97065" lon="2.85534">
        <ele>526</ele>
        <time>2023-07-04T16:02:51Z</time>
      </trkpt>
      <trkpt lat="45.97065" lon="2.85538">
        <ele>525.7</ele>
        <time>2023-07-04T16:02:52Z</time>
      </trkpt>
      <trkpt lat="45.97065" lon="2.85543">
        <ele>525.5</ele>
        <time>2023-07-04T16:02:53Z</time>
      </trkpt>
      <trkpt lat="45.97064" lon="2.85549">
        <ele>525.1</ele>
        <time>2023-07-04T16:02:54Z</time>
      </trkpt>
      <trkpt lat="45.97066" lon="2.85556">
        <ele>524.6</ele>
        <time>2023-07-04T16:02:55Z</time>
      </trkpt>
      <trkpt lat="45.97067" lon="2.8556">
        <ele>524.3</ele>
        <time>2023-07-04T16:02:56Z</time>
      </trkpt>
      <trkpt lat="45.97067" lon="2.85565">
        <ele>523.9</ele>
        <time>2023-07-04T16:02:57Z</time>
      </trkpt>
      <trkpt lat="45.97067" lon="2.85571">
        <ele>523.6</ele>
        <time>2023-07-04T16:02:58Z</time>
      </trkpt>
      <trkpt lat="45.97068" lon="2.85576">
        <ele>523.1</ele>
        <time>2023-07-04T16:02:59Z</time>
      </trkpt>
      <trkpt lat="45.97069" lon="2.8558">
        <ele>522.8</ele>
        <time>2023-07-04T16:03:00Z</time>
      </trkpt>
      <trkpt lat="45.97069" lon="2.85585">
        <ele>522.4</ele>
        <time>2023-07-04T16:03:01Z</time>
      </trkpt>
      <trkpt lat="45.97069" lon="2.8559">
        <ele>521.9</ele>
        <time>2023-07-04T16:03:02Z</time>
      </trkpt>
      <trkpt lat="45.9707" lon="2.85594">
        <ele>521.6</ele>
        <time>2023-07-04T16:03:03Z</time>
      </trkpt>
      <trkpt lat="45.97071" lon="2.85599">
        <ele>521.1</ele>
        <time>2023-07-04T16:03:04Z</time>
      </trkpt>
      <trkpt lat="45.97072" lon="2.85603">
        <ele>520.7</ele>
        <time>2023-07-04T16:03:05Z</time>
      </trkpt>
      <trkpt lat="45.97073" lon="2.85609">
        <ele>520.2</ele>
        <time>2023-07-04T16:03:06Z</time>
      </trkpt>
      <trkpt lat="45.97074" lon="2.85614">
        <ele>519.7</ele>
        <time>2023-07-04T16:03:08Z</time>
      </trkpt>
      <trkpt lat="45.97076" lon="2.85619">
        <ele>519.1</ele>
        <time>2023-07-04T16:03:09Z</time>
      </trkpt>
      <trkpt lat="45.97077" lon="2.85621">
        <ele>518.9</ele>
        <time>2023-07-04T16:03:10Z</time>
      </trkpt>
      <trkpt lat="45.9708" lon="2.85625">
        <ele>518.4</ele>
        <time>2023-07-04T16:03:11Z</time>
      </trkpt>
      <trkpt lat="45.97082" lon="2.85628">
        <ele>518.1</ele>
        <time>2023-07-04T16:03:12Z</time>
      </trkpt>
      <trkpt lat="45.97084" lon="2.85634">
        <ele>517.6</ele>
        <time>2023-07-04T16:03:13Z</time>
      </trkpt>
      <trkpt lat="45.97086" lon="2.85638">
        <ele>517.2</ele>
        <time>2023-07-04T16:03:14Z</time>
      </trkpt>
      <trkpt lat="45.97087" lon="2.85643">
        <ele>516.8</ele>
        <time>2023-07-04T16:03:15Z</time>
      </trkpt>
      <trkpt lat="45.97089" lon="2.85647">
        <ele>516.5</ele>
        <time>2023-07-04T16:03:16Z</time>
      </trkpt>
      <trkpt lat="45.9709" lon="2.85651">
        <ele>516.3</ele>
        <time>2023-07-04T16:03:17Z</time>
      </trkpt>
      <trkpt lat="45.9709" lon="2.85655">
        <ele>516</ele>
        <time>2023-07-04T16:03:18Z</time>
      </trkpt>
      <trkpt lat="45.97089" lon="2.85659">
        <ele>515.8</ele>
        <time>2023-07-04T16:03:19Z</time>
      </trkpt>
      <trkpt lat="45.97088" lon="2.85664">
        <ele>515.5</ele>
        <time>2023-07-04T16:03:20Z</time>
      </trkpt>
      <trkpt lat="45.97086" lon="2.85669">
        <ele>513.8</ele>
        <time>2023-07-04T16:03:21Z</time>
      </trkpt>
      <trkpt lat="45.97085" lon="2.8567">
        <ele>513.4</ele>
        <time>2023-07-04T16:03:22Z</time>
      </trkpt>
      <trkpt lat="45.97085" lon="2.85675">
        <ele>511.3</ele>
        <time>2023-07-04T16:03:23Z</time>
      </trkpt>
      <trkpt lat="45.97085" lon="2.85677">
        <ele>510.9</ele>
        <time>2023-07-04T16:03:24Z</time>
      </trkpt>
      <trkpt lat="45.97086" lon="2.85682">
        <ele>509.7</ele>
        <time>2023-07-04T16:03:25Z</time>
      </trkpt>
      <trkpt lat="45.97086" lon="2.85686">
        <ele>508.5</ele>
        <time>2023-07-04T16:03:26Z</time>
      </trkpt>
      <trkpt lat="45.97087" lon="2.85691">
        <ele>507.2</ele>
        <time>2023-07-04T16:03:27Z</time>
      </trkpt>
      <trkpt lat="45.97087" lon="2.85693">
        <ele>506.3</ele>
        <time>2023-07-04T16:03:28Z</time>
      </trkpt>
      <trkpt lat="45.97087" lon="2.85698">
        <ele>505</ele>
        <time>2023-07-04T16:03:29Z</time>
      </trkpt>
      <trkpt lat="45.97087" lon="2.85703">
        <ele>503.9</ele>
        <time>2023-07-04T16:03:30Z</time>
      </trkpt>
      <trkpt lat="45.97087" lon="2.85707">
        <ele>502.7</ele>
        <time>2023-07-04T16:03:31Z</time>
      </trkpt>
      <trkpt lat="45.97086" lon="2.85712">
        <ele>501.7</ele>
        <time>2023-07-04T16:03:32Z</time>
      </trkpt>
      <trkpt lat="45.97086" lon="2.85717">
        <ele>500.9</ele>
        <time>2023-07-04T16:03:33Z</time>
      </trkpt>
      <trkpt lat="45.97085" lon="2.85723">
        <ele>499.7</ele>
        <time>2023-07-04T16:03:34Z</time>
      </trkpt>
      <trkpt lat="45.97084" lon="2.85727">
        <ele>498.9</ele>
        <time>2023-07-04T16:03:35Z</time>
      </trkpt>
      <trkpt lat="45.97082" lon="2.8573">
        <ele>498.2</ele>
        <time>2023-07-04T16:03:36Z</time>
      </trkpt>
      <trkpt lat="45.97077" lon="2.85733">
        <ele>498</ele>
        <time>2023-07-04T16:03:37Z</time>
      </trkpt>
      <trkpt lat="45.97074" lon="2.85735">
        <ele>497.6</ele>
        <time>2023-07-04T16:03:38Z</time>
      </trkpt>
      <trkpt lat="45.9707" lon="2.85739">
        <ele>497</ele>
        <time>2023-07-04T16:03:40Z</time>
      </trkpt>
      <trkpt lat="45.97069" lon="2.85743">
        <ele>496.3</ele>
        <time>2023-07-04T16:03:42Z</time>
      </trkpt>
      <trkpt lat="45.9707" lon="2.85748">
        <ele>495.4</ele>
        <time>2023-07-04T16:03:43Z</time>
      </trkpt>
      <trkpt lat="45.97071" lon="2.8575">
        <ele>494.9</ele>
        <time>2023-07-04T16:03:44Z</time>
      </trkpt>
      <trkpt lat="45.97073" lon="2.85753">
        <ele>494.1</ele>
        <time>2023-07-04T16:03:45Z</time>
      </trkpt>
      <trkpt lat="45.97076" lon="2.85753">
        <ele>493.5</ele>
        <time>2023-07-04T16:03:46Z</time>
      </trkpt>
      <trkpt lat="45.97078" lon="2.85753">
        <ele>493.3</ele>
        <time>2023-07-04T16:03:47Z</time>
      </trkpt>
      <trkpt lat="45.97081" lon="2.85754">
        <ele>492.9</ele>
        <time>2023-07-04T16:03:48Z</time>
      </trkpt>
      <trkpt lat="45.97084" lon="2.85755">
        <ele>492.3</ele>
        <time>2023-07-04T16:03:49Z</time>
      </trkpt>
      <trkpt lat="45.97088" lon="2.85757">
        <ele>491.8</ele>
        <time>2023-07-04T16:03:50Z</time>
      </trkpt>
      <trkpt lat="45.97091" lon="2.85762">
        <ele>491.1</ele>
        <time>2023-07-04T16:03:51Z</time>
      </trkpt>
      <trkpt lat="45.97093" lon="2.85766">
        <ele>490.5</ele>
        <time>2023-07-04T16:03:52Z</time>
      </trkpt>
      <trkpt lat="45.97094" lon="2.85767">
        <ele>490.2</ele>
        <time>2023-07-04T16:03:53Z</time>
      </trkpt>
      <trkpt lat="45.97097" lon="2.85772">
        <ele>489.4</ele>
        <time>2023-07-04T16:03:54Z</time>
      </trkpt>
      <trkpt lat="45.97099" lon="2.85774">
        <ele>489.1</ele>
        <time>2023-07-04T16:03:55Z</time>
      </trkpt>
      <trkpt lat="45.97101" lon="2.85777">
        <ele>488.4</ele>
        <time>2023-07-04T16:03:56Z</time>
      </trkpt>
      <trkpt lat="45.97104" lon="2.85781">
        <ele>487.8</ele>
        <time>2023-07-04T16:03:57Z</time>
      </trkpt>
      <trkpt lat="45.97107" lon="2.85784">
        <ele>487.2</ele>
        <time>2023-07-04T16:03:58Z</time>
      </trkpt>
      <trkpt lat="45.9711" lon="2.85788">
        <ele>486.4</ele>
        <time>2023-07-04T16:03:59Z</time>
      </trkpt>
      <trkpt lat="45.97113" lon="2.85791">
        <ele>485.9</ele>
        <time>2023-07-04T16:04:00Z</time>
      </trkpt>
      <trkpt lat="45.97116" lon="2.85795">
        <ele>485.2</ele>
        <time>2023-07-04T16:04:01Z</time>
      </trkpt>
      <trkpt lat="45.97118" lon="2.85797">
        <ele>484.6</ele>
        <time>2023-07-04T16:04:02Z</time>
      </trkpt>
      <trkpt lat="45.97121" lon="2.85798">
        <ele>484.2</ele>
        <time>2023-07-04T16:04:03Z</time>
      </trkpt>
      <trkpt lat="45.97125" lon="2.858">
        <ele>483.5</ele>
        <time>2023-07-04T16:04:04Z</time>
      </trkpt>
      <trkpt lat="45.97129" lon="2.85802">
        <ele>482.9</ele>
        <time>2023-07-04T16:04:05Z</time>
      </trkpt>
      <trkpt lat="45.97133" lon="2.85805">
        <ele>482.2</ele>
        <time>2023-07-04T16:04:06Z</time>
      </trkpt>
      <trkpt lat="45.97135" lon="2.85806">
        <ele>481.9</ele>
        <time>2023-07-04T16:04:07Z</time>
      </trkpt>
      <trkpt lat="45.97138" lon="2.85809">
        <ele>481.4</ele>
        <time>2023-07-04T16:04:09Z</time>
      </trkpt>
      <trkpt lat="45.97139" lon="2.85811">
        <ele>481.1</ele>
        <time>2023-07-04T16:04:10Z</time>
      </trkpt>
      <trkpt lat="45.9714" lon="2.85813">
        <ele>480.9</ele>
        <time>2023-07-04T16:04:11Z</time>
      </trkpt>
      <trkpt lat="45.97141" lon="2.85815">
        <ele>480.6</ele>
        <time>2023-07-04T16:04:12Z</time>
      </trkpt>
      <trkpt lat="45.97141" lon="2.85817">
        <ele>480.3</ele>
        <time>2023-07-04T16:04:13Z</time>
      </trkpt>
      <trkpt lat="45.97141" lon="2.8582">
        <ele>480</ele>
        <time>2023-07-04T16:04:14Z</time>
      </trkpt>
      <trkpt lat="45.97141" lon="2.85821">
        <ele>479.8</ele>
        <time>2023-07-04T16:04:15Z</time>
      </trkpt>
      <trkpt lat="45.9714" lon="2.85822">
        <ele>479.7</ele>
        <time>2023-07-04T16:04:16Z</time>
      </trkpt>
      <trkpt lat="45.9714" lon="2.85824">
        <ele>479.4</ele>
        <time>2023-07-04T16:04:17Z</time>
      </trkpt>
      <trkpt lat="45.97139" lon="2.85826">
        <ele>479.2</ele>
        <time>2023-07-04T16:04:18Z</time>
      </trkpt>
      <trkpt lat="45.97139" lon="2.85827">
        <ele>479</ele>
        <time>2023-07-04T16:04:19Z</time>
      </trkpt>
      <trkpt lat="45.9714" lon="2.8583">
        <ele>478.7</ele>
        <time>2023-07-04T16:04:20Z</time>
      </trkpt>
      <trkpt lat="45.97143" lon="2.85833">
        <ele>478.1</ele>
        <time>2023-07-04T16:04:21Z</time>
      </trkpt>
      <trkpt lat="45.97144" lon="2.85834">
        <ele>477.8</ele>
        <time>2023-07-04T16:04:22Z</time>
      </trkpt>
      <trkpt lat="45.97147" lon="2.85835">
        <ele>477.3</ele>
        <time>2023-07-04T16:04:23Z</time>
      </trkpt>
      <trkpt lat="45.9715" lon="2.85836">
        <ele>476.8</ele>
        <time>2023-07-04T16:04:24Z</time>
      </trkpt>
      <trkpt lat="45.97152" lon="2.85837">
        <ele>476.4</ele>
        <time>2023-07-04T16:04:25Z</time>
      </trkpt>
      <trkpt lat="45.97152" lon="2.85838">
        <ele>476.2</ele>
        <time>2023-07-04T16:04:26Z</time>
      </trkpt>
      <trkpt lat="45.97153" lon="2.85839">
        <ele>476.1</ele>
        <time>2023-07-04T16:04:27Z</time>
      </trkpt>
      <trkpt lat="45.97153" lon="2.8584">
        <ele>475.9</ele>
        <time>2023-07-04T16:04:28Z</time>
      </trkpt>
      <trkpt lat="45.97154" lon="2.85842">
        <ele>475.7</ele>
        <time>2023-07-04T16:04:29Z</time>
      </trkpt>
      <trkpt lat="45.97156" lon="2.85843">
        <ele>475.3</ele>
        <time>2023-07-04T16:04:31Z</time>
      </trkpt>
      <trkpt lat="45.97157" lon="2.85844">
        <ele>475.1</ele>
        <time>2023-07-04T16:04:32Z</time>
      </trkpt>
      <trkpt lat="45.97159" lon="2.85844">
        <ele>474.8</ele>
        <time>2023-07-04T16:04:33Z</time>
      </trkpt>
      <trkpt lat="45.9716" lon="2.85845">
        <ele>474.6</ele>
        <time>2023-07-04T16:04:34Z</time>
      </trkpt>
      <trkpt lat="45.97161" lon="2.85845">
        <ele>474.4</ele>
        <time>2023-07-04T16:04:35Z</time>
      </trkpt>
    </trkseg>
  </trk>
</gpx>